<?xml version="1.0" encoding="UTF-8" standalone="no" ?>
<gpx xmlns="http://www.topografix.com/GPX/1/1" xmlns:xsi="http://www.w3.org/2001/XMLSchema-instance" xsi:schemaLocation="http://www.topografix.com/GPX/1/1 http://www.topografix.com/GPX/1/1/gpx.xsd" version="1.1" creator="VisuGPX - https://www.visugpx.com">
  <metadata>
    <name>Sentier des passes jeudi 19 déc. 2019</name>
  </metadata>
  <trk>
    <name><![CDATA[Sentier des passes jeudi 19 déc. 2019]]></name>
    <trkseg>
      <trkpt lat="43.47755" lon="2.38095">
        <ele>342.99202911742</ele>
        <time>2019-12-19T13:03:29Z</time>
      </trkpt>
      <trkpt lat="43.47752" lon="2.38101">
        <ele>353.84639545344</ele>
        <time>2019-12-19T13:03:41Z</time>
      </trkpt>
      <trkpt lat="43.47747" lon="2.38092">
        <ele>338.47605076712</ele>
        <time>2019-12-19T13:05:25Z</time>
      </trkpt>
      <trkpt lat="43.47739" lon="2.38092">
        <ele>337.53839618806</ele>
        <time>2019-12-19T13:05:37Z</time>
      </trkpt>
      <trkpt lat="43.47731" lon="2.38091">
        <ele>338.83891302813</ele>
        <time>2019-12-19T13:05:42Z</time>
      </trkpt>
      <trkpt lat="43.47721" lon="2.38089">
        <ele>340.24536171183</ele>
        <time>2019-12-19T13:05:47Z</time>
      </trkpt>
      <trkpt lat="43.47713" lon="2.38085">
        <ele>342.47546933033</ele>
        <time>2019-12-19T13:05:58Z</time>
      </trkpt>
      <trkpt lat="43.47704" lon="2.38084">
        <ele>345.72433213796</ele>
        <time>2019-12-19T13:06:05Z</time>
      </trkpt>
      <trkpt lat="43.47696" lon="2.38087">
        <ele>347.14338451624</ele>
        <time>2019-12-19T13:06:12Z</time>
      </trkpt>
      <trkpt lat="43.47688" lon="2.38085">
        <ele>348.6655357657</ele>
        <time>2019-12-19T13:06:21Z</time>
      </trkpt>
      <trkpt lat="43.4768" lon="2.38079">
        <ele>350.63780143205</ele>
        <time>2019-12-19T13:06:29Z</time>
      </trkpt>
      <trkpt lat="43.47673" lon="2.38082">
        <ele>353.51111874171</ele>
        <time>2019-12-19T13:06:37Z</time>
      </trkpt>
      <trkpt lat="43.47666" lon="2.38087">
        <ele>355.8804377215</ele>
        <time>2019-12-19T13:06:43Z</time>
      </trkpt>
      <trkpt lat="43.47658" lon="2.38093">
        <ele>357.00718768779</ele>
        <time>2019-12-19T13:06:56Z</time>
      </trkpt>
      <trkpt lat="43.47648" lon="2.38102">
        <ele>357.55990910903</ele>
        <time>2019-12-19T13:07:01Z</time>
      </trkpt>
      <trkpt lat="43.4764" lon="2.38106">
        <ele>360.90509247035</ele>
        <time>2019-12-19T13:07:08Z</time>
      </trkpt>
      <trkpt lat="43.47635" lon="2.38115">
        <ele>363.64202604722</ele>
        <time>2019-12-19T13:07:18Z</time>
      </trkpt>
      <trkpt lat="43.47633" lon="2.38126">
        <ele>365.15079345554</ele>
        <time>2019-12-19T13:07:26Z</time>
      </trkpt>
      <trkpt lat="43.47629" lon="2.38132">
        <ele>364.74388407543</ele>
        <time>2019-12-19T13:07:45Z</time>
      </trkpt>
      <trkpt lat="43.47622" lon="2.38141">
        <ele>362.15013965499</ele>
        <time>2019-12-19T13:07:49Z</time>
      </trkpt>
      <trkpt lat="43.47618" lon="2.38149">
        <ele>359.27567024622</ele>
        <time>2019-12-19T13:07:54Z</time>
      </trkpt>
      <trkpt lat="43.47613" lon="2.38156">
        <ele>357.05024864618</ele>
        <time>2019-12-19T13:07:59Z</time>
      </trkpt>
      <trkpt lat="43.47606" lon="2.38163">
        <ele>356.67378684971</ele>
        <time>2019-12-19T13:08:15Z</time>
      </trkpt>
      <trkpt lat="43.47605" lon="2.38173">
        <ele>359.4199584173</ele>
        <time>2019-12-19T13:08:21Z</time>
      </trkpt>
      <trkpt lat="43.47603" lon="2.38184">
        <ele>360.49942797422</ele>
        <time>2019-12-19T13:08:27Z</time>
      </trkpt>
      <trkpt lat="43.47601" lon="2.38196">
        <ele>360.72349257022</ele>
        <time>2019-12-19T13:08:33Z</time>
      </trkpt>
      <trkpt lat="43.47606" lon="2.38206">
        <ele>363.2718333723</ele>
        <time>2019-12-19T13:08:43Z</time>
      </trkpt>
      <trkpt lat="43.47606" lon="2.38217">
        <ele>365.55905456562</ele>
        <time>2019-12-19T13:08:49Z</time>
      </trkpt>
      <trkpt lat="43.47606" lon="2.38229">
        <ele>367.53913828451</ele>
        <time>2019-12-19T13:08:57Z</time>
      </trkpt>
      <trkpt lat="43.47609" lon="2.38239">
        <ele>366.16946864687</ele>
        <time>2019-12-19T13:09:05Z</time>
      </trkpt>
      <trkpt lat="43.47607" lon="2.38251">
        <ele>365.09809055179</ele>
        <time>2019-12-19T13:09:14Z</time>
      </trkpt>
      <trkpt lat="43.47606" lon="2.38262">
        <ele>366.67390833423</ele>
        <time>2019-12-19T13:09:24Z</time>
      </trkpt>
      <trkpt lat="43.47606" lon="2.38274">
        <ele>366.29406681284</ele>
        <time>2019-12-19T13:09:38Z</time>
      </trkpt>
      <trkpt lat="43.47607" lon="2.38284">
        <ele>364.40628072061</ele>
        <time>2019-12-19T13:09:53Z</time>
      </trkpt>
      <trkpt lat="43.47613" lon="2.38292">
        <ele>364.61476106755</ele>
        <time>2019-12-19T13:10:00Z</time>
      </trkpt>
      <trkpt lat="43.47621" lon="2.38298">
        <ele>369.54026402626</ele>
        <time>2019-12-19T13:10:17Z</time>
      </trkpt>
      <trkpt lat="43.4763" lon="2.38299">
        <ele>370.14733867254</ele>
        <time>2019-12-19T13:10:29Z</time>
      </trkpt>
      <trkpt lat="43.47636" lon="2.38307">
        <ele>374.29438553657</ele>
        <time>2019-12-19T13:10:55Z</time>
      </trkpt>
      <trkpt lat="43.47641" lon="2.38315">
        <ele>375.04300507903</ele>
        <time>2019-12-19T13:11:33Z</time>
      </trkpt>
      <trkpt lat="43.47638" lon="2.38331">
        <ele>374.78259433992</ele>
        <time>2019-12-19T13:11:38Z</time>
      </trkpt>
      <trkpt lat="43.47635" lon="2.38341">
        <ele>375.36093162093</ele>
        <time>2019-12-19T13:11:43Z</time>
      </trkpt>
      <trkpt lat="43.47631" lon="2.38349">
        <ele>377.91617887747</ele>
        <time>2019-12-19T13:11:50Z</time>
      </trkpt>
      <trkpt lat="43.47625" lon="2.38358">
        <ele>380.96867612004</ele>
        <time>2019-12-19T13:11:58Z</time>
      </trkpt>
      <trkpt lat="43.4762" lon="2.38364">
        <ele>385.50734693371</ele>
        <time>2019-12-19T13:12:19Z</time>
      </trkpt>
      <trkpt lat="43.47606" lon="2.38369">
        <ele>387.26963966526</ele>
        <time>2019-12-19T13:12:24Z</time>
      </trkpt>
      <trkpt lat="43.4761" lon="2.38379">
        <ele>392.61842430942</ele>
        <time>2019-12-19T13:13:55Z</time>
      </trkpt>
      <trkpt lat="43.47618" lon="2.38385">
        <ele>392.7363353055</ele>
        <time>2019-12-19T13:14:08Z</time>
      </trkpt>
      <trkpt lat="43.47618" lon="2.38397">
        <ele>391.45300173573</ele>
        <time>2019-12-19T13:14:23Z</time>
      </trkpt>
      <trkpt lat="43.47616" lon="2.38406">
        <ele>392.54053326044</ele>
        <time>2019-12-19T13:14:33Z</time>
      </trkpt>
      <trkpt lat="43.47613" lon="2.38418">
        <ele>393.48295063153</ele>
        <time>2019-12-19T13:14:42Z</time>
      </trkpt>
      <trkpt lat="43.47609" lon="2.38427">
        <ele>394.95140978694</ele>
        <time>2019-12-19T13:14:52Z</time>
      </trkpt>
      <trkpt lat="43.47607" lon="2.38438">
        <ele>397.76208052225</ele>
        <time>2019-12-19T13:15:22Z</time>
      </trkpt>
      <trkpt lat="43.47607" lon="2.3845">
        <ele>403.09399108775</ele>
        <time>2019-12-19T13:15:46Z</time>
      </trkpt>
      <trkpt lat="43.47603" lon="2.38459">
        <ele>402.57276668679</ele>
        <time>2019-12-19T13:15:59Z</time>
      </trkpt>
      <trkpt lat="43.47598" lon="2.3847">
        <ele>402.89375183918</ele>
        <time>2019-12-19T13:16:04Z</time>
      </trkpt>
      <trkpt lat="43.47595" lon="2.38481">
        <ele>403.87687046546</ele>
        <time>2019-12-19T13:16:14Z</time>
      </trkpt>
      <trkpt lat="43.47597" lon="2.38492">
        <ele>407.3583166711</ele>
        <time>2019-12-19T13:16:41Z</time>
      </trkpt>
      <trkpt lat="43.47593" lon="2.38503">
        <ele>408.02848961204</ele>
        <time>2019-12-19T13:16:54Z</time>
      </trkpt>
      <trkpt lat="43.47598" lon="2.38511">
        <ele>410.60639128182</ele>
        <time>2019-12-19T13:17:06Z</time>
      </trkpt>
      <trkpt lat="43.47603" lon="2.3852">
        <ele>412.24070961867</ele>
        <time>2019-12-19T13:17:16Z</time>
      </trkpt>
      <trkpt lat="43.47598" lon="2.38527">
        <ele>414.27122669201</ele>
        <time>2019-12-19T13:17:31Z</time>
      </trkpt>
      <trkpt lat="43.47598" lon="2.38539">
        <ele>416.69844734576</ele>
        <time>2019-12-19T13:17:43Z</time>
      </trkpt>
      <trkpt lat="43.47595" lon="2.38551">
        <ele>419.72933979332</ele>
        <time>2019-12-19T13:17:53Z</time>
      </trkpt>
      <trkpt lat="43.47603" lon="2.38557">
        <ele>423.8880995037</ele>
        <time>2019-12-19T13:18:06Z</time>
      </trkpt>
      <trkpt lat="43.47599" lon="2.38566">
        <ele>423.91906432807</ele>
        <time>2019-12-19T13:18:13Z</time>
      </trkpt>
      <trkpt lat="43.47592" lon="2.38571">
        <ele>421.84007135499</ele>
        <time>2019-12-19T13:18:20Z</time>
      </trkpt>
      <trkpt lat="43.47591" lon="2.38584">
        <ele>425.04813575745</ele>
        <time>2019-12-19T13:19:06Z</time>
      </trkpt>
      <trkpt lat="43.47585" lon="2.38592">
        <ele>425.19697762374</ele>
        <time>2019-12-19T13:19:14Z</time>
      </trkpt>
      <trkpt lat="43.4758" lon="2.386">
        <ele>424.8293447895</ele>
        <time>2019-12-19T13:19:21Z</time>
      </trkpt>
      <trkpt lat="43.47576" lon="2.38608">
        <ele>424.75350375567</ele>
        <time>2019-12-19T13:19:26Z</time>
      </trkpt>
      <trkpt lat="43.4757" lon="2.38617">
        <ele>426.84447005112</ele>
        <time>2019-12-19T13:19:33Z</time>
      </trkpt>
      <trkpt lat="43.47565" lon="2.38625">
        <ele>429.88294486888</ele>
        <time>2019-12-19T13:19:42Z</time>
      </trkpt>
      <trkpt lat="43.47559" lon="2.38632">
        <ele>432.36254644487</ele>
        <time>2019-12-19T13:19:50Z</time>
      </trkpt>
      <trkpt lat="43.4755" lon="2.38641">
        <ele>433.24787015468</ele>
        <time>2019-12-19T13:19:55Z</time>
      </trkpt>
      <trkpt lat="43.47545" lon="2.38648">
        <ele>434.94851396699</ele>
        <time>2019-12-19T13:20:05Z</time>
      </trkpt>
      <trkpt lat="43.47541" lon="2.38657">
        <ele>435.60049811192</ele>
        <time>2019-12-19T13:20:12Z</time>
      </trkpt>
      <trkpt lat="43.47537" lon="2.38667">
        <ele>436.00328878965</ele>
        <time>2019-12-19T13:20:17Z</time>
      </trkpt>
      <trkpt lat="43.47533" lon="2.38678">
        <ele>435.16293856408</ele>
        <time>2019-12-19T13:20:32Z</time>
      </trkpt>
      <trkpt lat="43.47531" lon="2.38689">
        <ele>435.90534421429</ele>
        <time>2019-12-19T13:20:41Z</time>
      </trkpt>
      <trkpt lat="43.47529" lon="2.38701">
        <ele>436.29307524767</ele>
        <time>2019-12-19T13:20:50Z</time>
      </trkpt>
      <trkpt lat="43.47524" lon="2.38709">
        <ele>435.94847375434</ele>
        <time>2019-12-19T13:21:06Z</time>
      </trkpt>
      <trkpt lat="43.47515" lon="2.38722">
        <ele>435.94630864356</ele>
        <time>2019-12-19T13:21:11Z</time>
      </trkpt>
      <trkpt lat="43.47513" lon="2.38732">
        <ele>436.13440129161</ele>
        <time>2019-12-19T13:21:19Z</time>
      </trkpt>
      <trkpt lat="43.4751" lon="2.38743">
        <ele>436.42856816109</ele>
        <time>2019-12-19T13:21:23Z</time>
      </trkpt>
      <trkpt lat="43.47506" lon="2.38754">
        <ele>437.93765864428</ele>
        <time>2019-12-19T13:21:31Z</time>
      </trkpt>
      <trkpt lat="43.47503" lon="2.38766">
        <ele>439.00274126977</ele>
        <time>2019-12-19T13:21:42Z</time>
      </trkpt>
      <trkpt lat="43.47499" lon="2.38774">
        <ele>438.1630958803</ele>
        <time>2019-12-19T13:21:49Z</time>
      </trkpt>
      <trkpt lat="43.47494" lon="2.38783">
        <ele>438.71720637102</ele>
        <time>2019-12-19T13:21:53Z</time>
      </trkpt>
      <trkpt lat="43.47487" lon="2.38789">
        <ele>438.06352951564</ele>
        <time>2019-12-19T13:22:03Z</time>
      </trkpt>
      <trkpt lat="43.4748" lon="2.38796">
        <ele>438.54104938358</ele>
        <time>2019-12-19T13:22:11Z</time>
      </trkpt>
      <trkpt lat="43.47473" lon="2.38803">
        <ele>439.69702445716</ele>
        <time>2019-12-19T13:22:26Z</time>
      </trkpt>
      <trkpt lat="43.47465" lon="2.38807">
        <ele>441.99174239952</ele>
        <time>2019-12-19T13:22:40Z</time>
      </trkpt>
      <trkpt lat="43.47458" lon="2.38812">
        <ele>444.26324138511</ele>
        <time>2019-12-19T13:22:44Z</time>
      </trkpt>
      <trkpt lat="43.4745" lon="2.38814">
        <ele>447.09049935546</ele>
        <time>2019-12-19T13:22:52Z</time>
      </trkpt>
      <trkpt lat="43.47442" lon="2.38818">
        <ele>449.55477039795</ele>
        <time>2019-12-19T13:23:01Z</time>
      </trkpt>
      <trkpt lat="43.47436" lon="2.38827">
        <ele>450.00121307559</ele>
        <time>2019-12-19T13:23:13Z</time>
      </trkpt>
      <trkpt lat="43.47428" lon="2.38833">
        <ele>450.03914134949</ele>
        <time>2019-12-19T13:23:21Z</time>
      </trkpt>
      <trkpt lat="43.4742" lon="2.38838">
        <ele>450.27803337108</ele>
        <time>2019-12-19T13:23:30Z</time>
      </trkpt>
      <trkpt lat="43.47412" lon="2.38839">
        <ele>448.11372284312</ele>
        <time>2019-12-19T13:23:37Z</time>
      </trkpt>
      <trkpt lat="43.47404" lon="2.38842">
        <ele>446.92421869375</ele>
        <time>2019-12-19T13:23:44Z</time>
      </trkpt>
      <trkpt lat="43.47397" lon="2.38846">
        <ele>447.25455814134</ele>
        <time>2019-12-19T13:23:52Z</time>
      </trkpt>
      <trkpt lat="43.4739" lon="2.38852">
        <ele>447.32664340362</ele>
        <time>2019-12-19T13:23:58Z</time>
      </trkpt>
      <trkpt lat="43.47381" lon="2.38853">
        <ele>445.11978810001</ele>
        <time>2019-12-19T13:24:09Z</time>
      </trkpt>
      <trkpt lat="43.47374" lon="2.38861">
        <ele>446.26630576607</ele>
        <time>2019-12-19T13:24:16Z</time>
      </trkpt>
      <trkpt lat="43.47369" lon="2.38868">
        <ele>447.53166291583</ele>
        <time>2019-12-19T13:24:21Z</time>
      </trkpt>
      <trkpt lat="43.47365" lon="2.38878">
        <ele>448.59758428484</ele>
        <time>2019-12-19T13:24:28Z</time>
      </trkpt>
      <trkpt lat="43.47365" lon="2.3889">
        <ele>454.67794118077</ele>
        <time>2019-12-19T13:24:42Z</time>
      </trkpt>
      <trkpt lat="43.47358" lon="2.38895">
        <ele>452.00870963745</ele>
        <time>2019-12-19T13:24:51Z</time>
      </trkpt>
      <trkpt lat="43.47357" lon="2.38907">
        <ele>448.99593914766</ele>
        <time>2019-12-19T13:25:10Z</time>
      </trkpt>
      <trkpt lat="43.4735" lon="2.38913">
        <ele>446.7653788859</ele>
        <time>2019-12-19T13:25:18Z</time>
      </trkpt>
      <trkpt lat="43.47342" lon="2.38912">
        <ele>442.62455795985</ele>
        <time>2019-12-19T13:25:26Z</time>
      </trkpt>
      <trkpt lat="43.47336" lon="2.3892">
        <ele>440.06801312324</ele>
        <time>2019-12-19T13:25:32Z</time>
      </trkpt>
      <trkpt lat="43.47331" lon="2.3893">
        <ele>438.73832179047</ele>
        <time>2019-12-19T13:25:37Z</time>
      </trkpt>
      <trkpt lat="43.47327" lon="2.3894">
        <ele>438.55114933755</ele>
        <time>2019-12-19T13:25:54Z</time>
      </trkpt>
      <trkpt lat="43.47324" lon="2.38951">
        <ele>438.92140087299</ele>
        <time>2019-12-19T13:26:03Z</time>
      </trkpt>
      <trkpt lat="43.47323" lon="2.38961">
        <ele>441.06543654483</ele>
        <time>2019-12-19T13:26:17Z</time>
      </trkpt>
      <trkpt lat="43.4732" lon="2.38972">
        <ele>443.47178633977</ele>
        <time>2019-12-19T13:26:26Z</time>
      </trkpt>
      <trkpt lat="43.47315" lon="2.38982">
        <ele>443.60076778382</ele>
        <time>2019-12-19T13:26:36Z</time>
      </trkpt>
      <trkpt lat="43.47313" lon="2.38992">
        <ele>442.32738985308</ele>
        <time>2019-12-19T13:26:51Z</time>
      </trkpt>
      <trkpt lat="43.47312" lon="2.39007">
        <ele>441.00685519539</ele>
        <time>2019-12-19T13:26:56Z</time>
      </trkpt>
      <trkpt lat="43.47317" lon="2.39017">
        <ele>439.46536439285</ele>
        <time>2019-12-19T13:27:03Z</time>
      </trkpt>
      <trkpt lat="43.47315" lon="2.39028">
        <ele>437.970915935</ele>
        <time>2019-12-19T13:27:18Z</time>
      </trkpt>
      <trkpt lat="43.4731" lon="2.3904">
        <ele>438.69899757765</ele>
        <time>2019-12-19T13:27:23Z</time>
      </trkpt>
      <trkpt lat="43.47306" lon="2.39052">
        <ele>437.72928350419</ele>
        <time>2019-12-19T13:27:27Z</time>
      </trkpt>
      <trkpt lat="43.47303" lon="2.39061">
        <ele>435.15416863374</ele>
        <time>2019-12-19T13:27:40Z</time>
      </trkpt>
      <trkpt lat="43.47298" lon="2.3907">
        <ele>434.86481265072</ele>
        <time>2019-12-19T13:27:45Z</time>
      </trkpt>
      <trkpt lat="43.47293" lon="2.39078">
        <ele>435.49368093256</ele>
        <time>2019-12-19T13:27:50Z</time>
      </trkpt>
      <trkpt lat="43.47289" lon="2.39089">
        <ele>434.60180928651</ele>
        <time>2019-12-19T13:28:06Z</time>
      </trkpt>
      <trkpt lat="43.47285" lon="2.39099">
        <ele>434.255050092</ele>
        <time>2019-12-19T13:28:10Z</time>
      </trkpt>
      <trkpt lat="43.47282" lon="2.39108">
        <ele>435.20171085838</ele>
        <time>2019-12-19T13:28:14Z</time>
      </trkpt>
      <trkpt lat="43.4728" lon="2.3912">
        <ele>435.31229594722</ele>
        <time>2019-12-19T13:28:19Z</time>
      </trkpt>
      <trkpt lat="43.47279" lon="2.39131">
        <ele>434.81036650948</ele>
        <time>2019-12-19T13:28:25Z</time>
      </trkpt>
      <trkpt lat="43.47276" lon="2.39141">
        <ele>436.10103893746</ele>
        <time>2019-12-19T13:28:47Z</time>
      </trkpt>
      <trkpt lat="43.47277" lon="2.39152">
        <ele>438.13894351013</ele>
        <time>2019-12-19T13:28:54Z</time>
      </trkpt>
      <trkpt lat="43.47279" lon="2.39162">
        <ele>439.4422786776</ele>
        <time>2019-12-19T13:29:01Z</time>
      </trkpt>
      <trkpt lat="43.47276" lon="2.39172">
        <ele>440.54410027619</ele>
        <time>2019-12-19T13:29:06Z</time>
      </trkpt>
      <trkpt lat="43.47275" lon="2.39184">
        <ele>440.87087341864</ele>
        <time>2019-12-19T13:29:17Z</time>
      </trkpt>
      <trkpt lat="43.47277" lon="2.39195">
        <ele>442.64461357892</ele>
        <time>2019-12-19T13:29:29Z</time>
      </trkpt>
      <trkpt lat="43.47279" lon="2.39207">
        <ele>444.39404036384</ele>
        <time>2019-12-19T13:29:36Z</time>
      </trkpt>
      <trkpt lat="43.47281" lon="2.39217">
        <ele>443.95064096991</ele>
        <time>2019-12-19T13:29:43Z</time>
      </trkpt>
      <trkpt lat="43.47289" lon="2.39223">
        <ele>444.25031487737</ele>
        <time>2019-12-19T13:29:52Z</time>
      </trkpt>
      <trkpt lat="43.47287" lon="2.39235">
        <ele>445.29778162856</ele>
        <time>2019-12-19T13:30:00Z</time>
      </trkpt>
      <trkpt lat="43.4729" lon="2.39247">
        <ele>445.29591584671</ele>
        <time>2019-12-19T13:30:08Z</time>
      </trkpt>
      <trkpt lat="43.47294" lon="2.39257">
        <ele>444.6144845644</ele>
        <time>2019-12-19T13:30:16Z</time>
      </trkpt>
      <trkpt lat="43.47289" lon="2.39268">
        <ele>441.8937369464</ele>
        <time>2019-12-19T13:30:23Z</time>
      </trkpt>
      <trkpt lat="43.47297" lon="2.39273">
        <ele>443.92394176684</ele>
        <time>2019-12-19T13:30:30Z</time>
      </trkpt>
      <trkpt lat="43.47299" lon="2.39284">
        <ele>445.46156315226</ele>
        <time>2019-12-19T13:30:40Z</time>
      </trkpt>
      <trkpt lat="43.47294" lon="2.39294">
        <ele>444.53139688168</ele>
        <time>2019-12-19T13:30:48Z</time>
      </trkpt>
      <trkpt lat="43.47294" lon="2.39306">
        <ele>446.14043243974</ele>
        <time>2019-12-19T13:30:59Z</time>
      </trkpt>
      <trkpt lat="43.47286" lon="2.3931">
        <ele>444.83741506841</ele>
        <time>2019-12-19T13:32:11Z</time>
      </trkpt>
      <trkpt lat="43.47279" lon="2.39317">
        <ele>444.17603129242</ele>
        <time>2019-12-19T13:32:57Z</time>
      </trkpt>
      <trkpt lat="43.47285" lon="2.39327">
        <ele>443.91264993511</ele>
        <time>2019-12-19T13:33:13Z</time>
      </trkpt>
      <trkpt lat="43.47287" lon="2.39337">
        <ele>442.7753232969</ele>
        <time>2019-12-19T13:33:23Z</time>
      </trkpt>
      <trkpt lat="43.47293" lon="2.39346">
        <ele>443.40570082795</ele>
        <time>2019-12-19T13:33:29Z</time>
      </trkpt>
      <trkpt lat="43.47298" lon="2.39356">
        <ele>443.0820793407</ele>
        <time>2019-12-19T13:33:38Z</time>
      </trkpt>
      <trkpt lat="43.47295" lon="2.39366">
        <ele>442.11686842982</ele>
        <time>2019-12-19T13:33:45Z</time>
      </trkpt>
      <trkpt lat="43.47296" lon="2.39378">
        <ele>438.21752109192</ele>
        <time>2019-12-19T13:34:03Z</time>
      </trkpt>
      <trkpt lat="43.47288" lon="2.39384">
        <ele>440.25019983202</ele>
        <time>2019-12-19T13:34:27Z</time>
      </trkpt>
      <trkpt lat="43.47282" lon="2.39376">
        <ele>440.34667715244</ele>
        <time>2019-12-19T13:34:34Z</time>
      </trkpt>
      <trkpt lat="43.47276" lon="2.39368">
        <ele>439.17105789762</ele>
        <time>2019-12-19T13:34:42Z</time>
      </trkpt>
      <trkpt lat="43.4727" lon="2.39361">
        <ele>435.44645814318</ele>
        <time>2019-12-19T13:34:50Z</time>
      </trkpt>
      <trkpt lat="43.47262" lon="2.39354">
        <ele>432.19432660006</ele>
        <time>2019-12-19T13:35:01Z</time>
      </trkpt>
      <trkpt lat="43.47255" lon="2.39348">
        <ele>428.59556678031</ele>
        <time>2019-12-19T13:35:09Z</time>
      </trkpt>
      <trkpt lat="43.47246" lon="2.39344">
        <ele>425.16643146519</ele>
        <time>2019-12-19T13:35:19Z</time>
      </trkpt>
      <trkpt lat="43.47239" lon="2.39338">
        <ele>421.57737035956</ele>
        <time>2019-12-19T13:35:33Z</time>
      </trkpt>
      <trkpt lat="43.47231" lon="2.39335">
        <ele>418.85592716001</ele>
        <time>2019-12-19T13:35:40Z</time>
      </trkpt>
      <trkpt lat="43.47223" lon="2.39333">
        <ele>417.87438517343</ele>
        <time>2019-12-19T13:35:47Z</time>
      </trkpt>
      <trkpt lat="43.47215" lon="2.39334">
        <ele>417.55984994117</ele>
        <time>2019-12-19T13:36:03Z</time>
      </trkpt>
      <trkpt lat="43.47208" lon="2.39341">
        <ele>419.6141032232</ele>
        <time>2019-12-19T13:36:13Z</time>
      </trkpt>
      <trkpt lat="43.47206" lon="2.3935">
        <ele>419.30623923521</ele>
        <time>2019-12-19T13:36:48Z</time>
      </trkpt>
      <trkpt lat="43.47205" lon="2.39361">
        <ele>419.93740465771</ele>
        <time>2019-12-19T13:36:53Z</time>
      </trkpt>
      <trkpt lat="43.47209" lon="2.3937">
        <ele>414.2228795616</ele>
        <time>2019-12-19T13:37:15Z</time>
      </trkpt>
      <trkpt lat="43.47202" lon="2.39376">
        <ele>413.83276425581</ele>
        <time>2019-12-19T13:37:29Z</time>
      </trkpt>
      <trkpt lat="43.47192" lon="2.39381">
        <ele>412.6746523995</ele>
        <time>2019-12-19T13:37:34Z</time>
      </trkpt>
      <trkpt lat="43.47192" lon="2.39393">
        <ele>406.08779904712</ele>
        <time>2019-12-19T13:37:44Z</time>
      </trkpt>
      <trkpt lat="43.472" lon="2.39399">
        <ele>399.83134694584</ele>
        <time>2019-12-19T13:37:51Z</time>
      </trkpt>
      <trkpt lat="43.47211" lon="2.39393">
        <ele>395.79522968829</ele>
        <time>2019-12-19T13:37:55Z</time>
      </trkpt>
      <trkpt lat="43.47218" lon="2.39397">
        <ele>390.07150481548</ele>
        <time>2019-12-19T13:38:02Z</time>
      </trkpt>
      <trkpt lat="43.47228" lon="2.39399">
        <ele>387.7320787292</ele>
        <time>2019-12-19T13:38:07Z</time>
      </trkpt>
      <trkpt lat="43.47236" lon="2.39402">
        <ele>384.58243180998</ele>
        <time>2019-12-19T13:38:16Z</time>
      </trkpt>
      <trkpt lat="43.47244" lon="2.39403">
        <ele>380.21912714187</ele>
        <time>2019-12-19T13:38:22Z</time>
      </trkpt>
      <trkpt lat="43.47251" lon="2.39407">
        <ele>377.15282325353</ele>
        <time>2019-12-19T13:38:30Z</time>
      </trkpt>
      <trkpt lat="43.47249" lon="2.3942">
        <ele>377.23895979673</ele>
        <time>2019-12-19T13:38:34Z</time>
      </trkpt>
      <trkpt lat="43.47243" lon="2.39432">
        <ele>379.81267921813</ele>
        <time>2019-12-19T13:38:39Z</time>
      </trkpt>
      <trkpt lat="43.47241" lon="2.39443">
        <ele>383.36914088205</ele>
        <time>2019-12-19T13:38:44Z</time>
      </trkpt>
      <trkpt lat="43.47242" lon="2.39455">
        <ele>393.07154925819</ele>
        <time>2019-12-19T13:38:57Z</time>
      </trkpt>
      <trkpt lat="43.47243" lon="2.39466">
        <ele>394.80519982893</ele>
        <time>2019-12-19T13:39:03Z</time>
      </trkpt>
      <trkpt lat="43.47246" lon="2.39476">
        <ele>396.29887193814</ele>
        <time>2019-12-19T13:39:10Z</time>
      </trkpt>
      <trkpt lat="43.47253" lon="2.39481">
        <ele>397.23207945284</ele>
        <time>2019-12-19T13:39:19Z</time>
      </trkpt>
      <trkpt lat="43.47253" lon="2.39493">
        <ele>396.54952084552</ele>
        <time>2019-12-19T13:39:27Z</time>
      </trkpt>
      <trkpt lat="43.47253" lon="2.39505">
        <ele>396.52038820181</ele>
        <time>2019-12-19T13:39:33Z</time>
      </trkpt>
      <trkpt lat="43.47259" lon="2.39515">
        <ele>399.38126594014</ele>
        <time>2019-12-19T13:39:40Z</time>
      </trkpt>
      <trkpt lat="43.47259" lon="2.39527">
        <ele>404.41437607352</ele>
        <time>2019-12-19T13:39:46Z</time>
      </trkpt>
      <trkpt lat="43.47268" lon="2.39528">
        <ele>404.95841309056</ele>
        <time>2019-12-19T13:39:50Z</time>
      </trkpt>
      <trkpt lat="43.47274" lon="2.39537">
        <ele>407.41517767869</ele>
        <time>2019-12-19T13:39:56Z</time>
      </trkpt>
      <trkpt lat="43.47274" lon="2.39548">
        <ele>410.3751511462</ele>
        <time>2019-12-19T13:40:03Z</time>
      </trkpt>
      <trkpt lat="43.47272" lon="2.39559">
        <ele>409.21251305938</ele>
        <time>2019-12-19T13:40:13Z</time>
      </trkpt>
      <trkpt lat="43.47283" lon="2.39563">
        <ele>408.8353504017</ele>
        <time>2019-12-19T13:40:18Z</time>
      </trkpt>
      <trkpt lat="43.4729" lon="2.39569">
        <ele>408.22410858795</ele>
        <time>2019-12-19T13:40:24Z</time>
      </trkpt>
      <trkpt lat="43.47297" lon="2.39573">
        <ele>407.97601271048</ele>
        <time>2019-12-19T13:40:28Z</time>
      </trkpt>
      <trkpt lat="43.47309" lon="2.39577">
        <ele>409.72374012414</ele>
        <time>2019-12-19T13:40:33Z</time>
      </trkpt>
      <trkpt lat="43.47301" lon="2.39576">
        <ele>406.65420774743</ele>
        <time>2019-12-19T13:40:45Z</time>
      </trkpt>
      <trkpt lat="43.47307" lon="2.3958">
        <ele>406.52488740068</ele>
        <time>2019-12-19T13:40:51Z</time>
      </trkpt>
      <trkpt lat="43.47319" lon="2.39588">
        <ele>406.09052572493</ele>
        <time>2019-12-19T13:40:56Z</time>
      </trkpt>
      <trkpt lat="43.47327" lon="2.39595">
        <ele>405.43137906026</ele>
        <time>2019-12-19T13:41:00Z</time>
      </trkpt>
      <trkpt lat="43.47328" lon="2.39584">
        <ele>406.13317913283</ele>
        <time>2019-12-19T13:41:09Z</time>
      </trkpt>
      <trkpt lat="43.47332" lon="2.39575">
        <ele>406.74466610141</ele>
        <time>2019-12-19T13:41:14Z</time>
      </trkpt>
      <trkpt lat="43.47335" lon="2.39564">
        <ele>407.28138832003</ele>
        <time>2019-12-19T13:41:19Z</time>
      </trkpt>
      <trkpt lat="43.47336" lon="2.39553">
        <ele>407.45330768079</ele>
        <time>2019-12-19T13:41:25Z</time>
      </trkpt>
      <trkpt lat="43.47341" lon="2.39543">
        <ele>404.42955575418</ele>
        <time>2019-12-19T13:41:36Z</time>
      </trkpt>
      <trkpt lat="43.47343" lon="2.39533">
        <ele>399.7896125298</ele>
        <time>2019-12-19T13:41:47Z</time>
      </trkpt>
      <trkpt lat="43.47346" lon="2.39522">
        <ele>399.21971127391</ele>
        <time>2019-12-19T13:41:54Z</time>
      </trkpt>
      <trkpt lat="43.4735" lon="2.39513">
        <ele>397.15150249936</ele>
        <time>2019-12-19T13:42:03Z</time>
      </trkpt>
      <trkpt lat="43.47353" lon="2.39502">
        <ele>395.68664718233</ele>
        <time>2019-12-19T13:42:11Z</time>
      </trkpt>
      <trkpt lat="43.47357" lon="2.39494">
        <ele>394.34864675719</ele>
        <time>2019-12-19T13:42:17Z</time>
      </trkpt>
      <trkpt lat="43.47361" lon="2.39483">
        <ele>393.02565232944</ele>
        <time>2019-12-19T13:42:23Z</time>
      </trkpt>
      <trkpt lat="43.47363" lon="2.39472">
        <ele>392.60532892123</ele>
        <time>2019-12-19T13:42:31Z</time>
      </trkpt>
      <trkpt lat="43.47366" lon="2.39461">
        <ele>393.28812115919</ele>
        <time>2019-12-19T13:42:39Z</time>
      </trkpt>
      <trkpt lat="43.4737" lon="2.39451">
        <ele>392.82578216027</ele>
        <time>2019-12-19T13:42:46Z</time>
      </trkpt>
      <trkpt lat="43.47373" lon="2.39439">
        <ele>391.77140862867</ele>
        <time>2019-12-19T13:42:53Z</time>
      </trkpt>
      <trkpt lat="43.47375" lon="2.39428">
        <ele>392.16783443466</ele>
        <time>2019-12-19T13:43:00Z</time>
      </trkpt>
      <trkpt lat="43.47382" lon="2.39423">
        <ele>394.55822804291</ele>
        <time>2019-12-19T13:43:06Z</time>
      </trkpt>
      <trkpt lat="43.4739" lon="2.39419">
        <ele>398.19845337141</ele>
        <time>2019-12-19T13:43:12Z</time>
      </trkpt>
      <trkpt lat="43.47398" lon="2.39415">
        <ele>399.87771322578</ele>
        <time>2019-12-19T13:43:22Z</time>
      </trkpt>
      <trkpt lat="43.47404" lon="2.39407">
        <ele>399.31562025566</ele>
        <time>2019-12-19T13:43:32Z</time>
      </trkpt>
      <trkpt lat="43.47412" lon="2.39399">
        <ele>397.67739195842</ele>
        <time>2019-12-19T13:43:37Z</time>
      </trkpt>
      <trkpt lat="43.47419" lon="2.39392">
        <ele>396.00177755952</ele>
        <time>2019-12-19T13:43:50Z</time>
      </trkpt>
      <trkpt lat="43.47428" lon="2.39384">
        <ele>393.80171809904</ele>
        <time>2019-12-19T13:43:55Z</time>
      </trkpt>
      <trkpt lat="43.47435" lon="2.39376">
        <ele>392.30114215612</ele>
        <time>2019-12-19T13:44:02Z</time>
      </trkpt>
      <trkpt lat="43.4744" lon="2.3937">
        <ele>391.71986691002</ele>
        <time>2019-12-19T13:44:08Z</time>
      </trkpt>
      <trkpt lat="43.4745" lon="2.39362">
        <ele>389.99598301761</ele>
        <time>2019-12-19T13:44:13Z</time>
      </trkpt>
      <trkpt lat="43.4746" lon="2.39358">
        <ele>391.39310440514</ele>
        <time>2019-12-19T13:44:18Z</time>
      </trkpt>
      <trkpt lat="43.47468" lon="2.39352">
        <ele>390.2749860594</ele>
        <time>2019-12-19T13:44:25Z</time>
      </trkpt>
      <trkpt lat="43.47464" lon="2.39343">
        <ele>393.64573234413</ele>
        <time>2019-12-19T13:44:30Z</time>
      </trkpt>
      <trkpt lat="43.4746" lon="2.39332">
        <ele>395.95649427176</ele>
        <time>2019-12-19T13:44:36Z</time>
      </trkpt>
      <trkpt lat="43.47461" lon="2.39321">
        <ele>395.53981163632</ele>
        <time>2019-12-19T13:44:43Z</time>
      </trkpt>
      <trkpt lat="43.47462" lon="2.39309">
        <ele>394.61398929264</ele>
        <time>2019-12-19T13:44:54Z</time>
      </trkpt>
      <trkpt lat="43.47459" lon="2.39299">
        <ele>395.51891232561</ele>
        <time>2019-12-19T13:45:04Z</time>
      </trkpt>
      <trkpt lat="43.47457" lon="2.39287">
        <ele>398.8501602551</ele>
        <time>2019-12-19T13:45:14Z</time>
      </trkpt>
      <trkpt lat="43.47454" lon="2.39275">
        <ele>393.07267808914</ele>
        <time>2019-12-19T13:45:29Z</time>
      </trkpt>
      <trkpt lat="43.47456" lon="2.39264">
        <ele>391.24487262592</ele>
        <time>2019-12-19T13:45:37Z</time>
      </trkpt>
      <trkpt lat="43.47454" lon="2.39252">
        <ele>388.76113967597</ele>
        <time>2019-12-19T13:45:48Z</time>
      </trkpt>
      <trkpt lat="43.47451" lon="2.3924">
        <ele>386.93977914285</ele>
        <time>2019-12-19T13:45:57Z</time>
      </trkpt>
      <trkpt lat="43.47446" lon="2.39231">
        <ele>384.16673635598</ele>
        <time>2019-12-19T13:46:07Z</time>
      </trkpt>
      <trkpt lat="43.47442" lon="2.3922">
        <ele>382.64624779858</ele>
        <time>2019-12-19T13:46:16Z</time>
      </trkpt>
      <trkpt lat="43.47437" lon="2.3921">
        <ele>386.11286675092</ele>
        <time>2019-12-19T13:46:25Z</time>
      </trkpt>
      <trkpt lat="43.47433" lon="2.392">
        <ele>384.79117956385</ele>
        <time>2019-12-19T13:46:36Z</time>
      </trkpt>
      <trkpt lat="43.47426" lon="2.39194">
        <ele>386.00467824284</ele>
        <time>2019-12-19T13:46:46Z</time>
      </trkpt>
      <trkpt lat="43.47422" lon="2.39185">
        <ele>385.21446649358</ele>
        <time>2019-12-19T13:46:55Z</time>
      </trkpt>
      <trkpt lat="43.47414" lon="2.3918">
        <ele>385.56241446547</ele>
        <time>2019-12-19T13:47:04Z</time>
      </trkpt>
      <trkpt lat="43.47421" lon="2.39178">
        <ele>385.64279083908</ele>
        <time>2019-12-19T13:47:59Z</time>
      </trkpt>
      <trkpt lat="43.4743" lon="2.39178">
        <ele>386.54482657835</ele>
        <time>2019-12-19T13:48:05Z</time>
      </trkpt>
      <trkpt lat="43.47438" lon="2.39182">
        <ele>387.34602704272</ele>
        <time>2019-12-19T13:48:10Z</time>
      </trkpt>
      <trkpt lat="43.47445" lon="2.39188">
        <ele>397.42591692694</ele>
        <time>2019-12-19T13:48:21Z</time>
      </trkpt>
      <trkpt lat="43.47452" lon="2.39192">
        <ele>399.36178199667</ele>
        <time>2019-12-19T13:48:30Z</time>
      </trkpt>
      <trkpt lat="43.47458" lon="2.39199">
        <ele>400.66281297896</ele>
        <time>2019-12-19T13:48:36Z</time>
      </trkpt>
      <trkpt lat="43.47462" lon="2.39209">
        <ele>403.49773071986</ele>
        <time>2019-12-19T13:48:41Z</time>
      </trkpt>
      <trkpt lat="43.47467" lon="2.39218">
        <ele>405.65687423479</ele>
        <time>2019-12-19T13:48:49Z</time>
      </trkpt>
      <trkpt lat="43.47471" lon="2.39228">
        <ele>400.08987348992</ele>
        <time>2019-12-19T13:49:01Z</time>
      </trkpt>
      <trkpt lat="43.4748" lon="2.39232">
        <ele>396.49261938408</ele>
        <time>2019-12-19T13:49:14Z</time>
      </trkpt>
      <trkpt lat="43.47486" lon="2.39241">
        <ele>396.58545090631</ele>
        <time>2019-12-19T13:49:24Z</time>
      </trkpt>
      <trkpt lat="43.47489" lon="2.39251">
        <ele>396.70899649244</ele>
        <time>2019-12-19T13:49:31Z</time>
      </trkpt>
      <trkpt lat="43.47497" lon="2.39258">
        <ele>395.77603249438</ele>
        <time>2019-12-19T13:49:39Z</time>
      </trkpt>
      <trkpt lat="43.47496" lon="2.39269">
        <ele>397.78580893017</ele>
        <time>2019-12-19T13:49:45Z</time>
      </trkpt>
      <trkpt lat="43.47501" lon="2.3928">
        <ele>398.05305519048</ele>
        <time>2019-12-19T13:49:53Z</time>
      </trkpt>
      <trkpt lat="43.47504" lon="2.39291">
        <ele>398.27499093395</ele>
        <time>2019-12-19T13:49:59Z</time>
      </trkpt>
      <trkpt lat="43.47502" lon="2.39279">
        <ele>407.34435103834</ele>
        <time>2019-12-19T13:50:29Z</time>
      </trkpt>
      <trkpt lat="43.47497" lon="2.39271">
        <ele>411.56060326286</ele>
        <time>2019-12-19T13:50:35Z</time>
      </trkpt>
      <trkpt lat="43.47491" lon="2.39264">
        <ele>414.58402574062</ele>
        <time>2019-12-19T13:50:41Z</time>
      </trkpt>
      <trkpt lat="43.47487" lon="2.39253">
        <ele>418.57213148288</ele>
        <time>2019-12-19T13:50:49Z</time>
      </trkpt>
      <trkpt lat="43.47485" lon="2.39242">
        <ele>422.14343314152</ele>
        <time>2019-12-19T13:50:57Z</time>
      </trkpt>
      <trkpt lat="43.47485" lon="2.39231">
        <ele>423.40585131105</ele>
        <time>2019-12-19T13:51:05Z</time>
      </trkpt>
      <trkpt lat="43.47481" lon="2.39221">
        <ele>424.19996580668</ele>
        <time>2019-12-19T13:51:17Z</time>
      </trkpt>
      <trkpt lat="43.47475" lon="2.39213">
        <ele>426.5354683036</ele>
        <time>2019-12-19T13:51:23Z</time>
      </trkpt>
      <trkpt lat="43.47469" lon="2.39204">
        <ele>430.2159252828</ele>
        <time>2019-12-19T13:51:32Z</time>
      </trkpt>
      <trkpt lat="43.47462" lon="2.39197">
        <ele>428.98525645398</ele>
        <time>2019-12-19T13:51:41Z</time>
      </trkpt>
      <trkpt lat="43.47456" lon="2.3919">
        <ele>430.71883978788</ele>
        <time>2019-12-19T13:51:52Z</time>
      </trkpt>
      <trkpt lat="43.47452" lon="2.39181">
        <ele>428.59764350951</ele>
        <time>2019-12-19T13:51:59Z</time>
      </trkpt>
      <trkpt lat="43.47446" lon="2.39172">
        <ele>427.86517502274</ele>
        <time>2019-12-19T13:52:07Z</time>
      </trkpt>
      <trkpt lat="43.47443" lon="2.39162">
        <ele>425.04889523424</ele>
        <time>2019-12-19T13:52:17Z</time>
      </trkpt>
      <trkpt lat="43.47443" lon="2.3915">
        <ele>426.27499584761</ele>
        <time>2019-12-19T13:52:25Z</time>
      </trkpt>
      <trkpt lat="43.47447" lon="2.39139">
        <ele>427.64665272087</ele>
        <time>2019-12-19T13:52:37Z</time>
      </trkpt>
      <trkpt lat="43.47453" lon="2.39147">
        <ele>430.67444861494</ele>
        <time>2019-12-19T13:52:46Z</time>
      </trkpt>
      <trkpt lat="43.47457" lon="2.39157">
        <ele>430.66171109397</ele>
        <time>2019-12-19T13:52:58Z</time>
      </trkpt>
      <trkpt lat="43.47462" lon="2.39166">
        <ele>432.87199173495</ele>
        <time>2019-12-19T13:53:04Z</time>
      </trkpt>
      <trkpt lat="43.4747" lon="2.39172">
        <ele>435.41259435564</ele>
        <time>2019-12-19T13:53:15Z</time>
      </trkpt>
      <trkpt lat="43.47473" lon="2.39182">
        <ele>435.18287269492</ele>
        <time>2019-12-19T13:53:21Z</time>
      </trkpt>
      <trkpt lat="43.47477" lon="2.39192">
        <ele>435.45115666837</ele>
        <time>2019-12-19T13:53:30Z</time>
      </trkpt>
      <trkpt lat="43.47484" lon="2.39194">
        <ele>438.59239426348</ele>
        <time>2019-12-19T13:53:36Z</time>
      </trkpt>
      <trkpt lat="43.4749" lon="2.39204">
        <ele>438.65100804716</ele>
        <time>2019-12-19T13:53:50Z</time>
      </trkpt>
      <trkpt lat="43.47493" lon="2.39214">
        <ele>437.66057971679</ele>
        <time>2019-12-19T13:54:00Z</time>
      </trkpt>
      <trkpt lat="43.47502" lon="2.39212">
        <ele>435.62156051584</ele>
        <time>2019-12-19T13:54:05Z</time>
      </trkpt>
      <trkpt lat="43.47511" lon="2.39212">
        <ele>426.72779789567</ele>
        <time>2019-12-19T13:54:16Z</time>
      </trkpt>
      <trkpt lat="43.47516" lon="2.39222">
        <ele>419.70083537977</ele>
        <time>2019-12-19T13:54:27Z</time>
      </trkpt>
      <trkpt lat="43.4752" lon="2.39231">
        <ele>417.89745707065</ele>
        <time>2019-12-19T13:54:34Z</time>
      </trkpt>
      <trkpt lat="43.47523" lon="2.39242">
        <ele>417.68560765963</ele>
        <time>2019-12-19T13:54:41Z</time>
      </trkpt>
      <trkpt lat="43.47524" lon="2.39253">
        <ele>415.79904112127</ele>
        <time>2019-12-19T13:54:48Z</time>
      </trkpt>
      <trkpt lat="43.47525" lon="2.39265">
        <ele>419.00950301811</ele>
        <time>2019-12-19T13:55:00Z</time>
      </trkpt>
      <trkpt lat="43.47529" lon="2.39275">
        <ele>418.97653281782</ele>
        <time>2019-12-19T13:55:09Z</time>
      </trkpt>
      <trkpt lat="43.47533" lon="2.39285">
        <ele>421.59115273226</ele>
        <time>2019-12-19T13:55:15Z</time>
      </trkpt>
      <trkpt lat="43.47537" lon="2.39296">
        <ele>425.32837942615</ele>
        <time>2019-12-19T13:55:21Z</time>
      </trkpt>
      <trkpt lat="43.47535" lon="2.39285">
        <ele>436.57772752643</ele>
        <time>2019-12-19T13:55:45Z</time>
      </trkpt>
      <trkpt lat="43.47533" lon="2.39273">
        <ele>438.00168024655</ele>
        <time>2019-12-19T13:55:55Z</time>
      </trkpt>
      <trkpt lat="43.47527" lon="2.39265">
        <ele>443.67476217356</ele>
        <time>2019-12-19T13:56:03Z</time>
      </trkpt>
      <trkpt lat="43.47524" lon="2.39254">
        <ele>448.90662190784</ele>
        <time>2019-12-19T13:56:12Z</time>
      </trkpt>
      <trkpt lat="43.47523" lon="2.39242">
        <ele>449.4737772597</ele>
        <time>2019-12-19T13:56:27Z</time>
      </trkpt>
      <trkpt lat="43.4752" lon="2.39231">
        <ele>449.88868977223</ele>
        <time>2019-12-19T13:56:35Z</time>
      </trkpt>
      <trkpt lat="43.47517" lon="2.39221">
        <ele>448.81869323459</ele>
        <time>2019-12-19T13:56:44Z</time>
      </trkpt>
      <trkpt lat="43.47516" lon="2.39209">
        <ele>444.81210087333</ele>
        <time>2019-12-19T13:58:42Z</time>
      </trkpt>
      <trkpt lat="43.47517" lon="2.39197">
        <ele>449.98221194651</ele>
        <time>2019-12-19T13:59:21Z</time>
      </trkpt>
      <trkpt lat="43.47521" lon="2.39207">
        <ele>449.96823761892</ele>
        <time>2019-12-19T13:59:29Z</time>
      </trkpt>
      <trkpt lat="43.47525" lon="2.39218">
        <ele>450.12501322851</ele>
        <time>2019-12-19T13:59:36Z</time>
      </trkpt>
      <trkpt lat="43.4753" lon="2.39227">
        <ele>449.7858614279</ele>
        <time>2019-12-19T13:59:42Z</time>
      </trkpt>
      <trkpt lat="43.47532" lon="2.39238">
        <ele>449.57376219239</ele>
        <time>2019-12-19T13:59:49Z</time>
      </trkpt>
      <trkpt lat="43.47536" lon="2.39249">
        <ele>451.67816290911</ele>
        <time>2019-12-19T13:59:59Z</time>
      </trkpt>
      <trkpt lat="43.47543" lon="2.39257">
        <ele>451.26102342177</ele>
        <time>2019-12-19T14:00:16Z</time>
      </trkpt>
      <trkpt lat="43.47547" lon="2.39266">
        <ele>451.55258879997</ele>
        <time>2019-12-19T14:00:24Z</time>
      </trkpt>
      <trkpt lat="43.47549" lon="2.39277">
        <ele>450.34952387121</ele>
        <time>2019-12-19T14:00:30Z</time>
      </trkpt>
      <trkpt lat="43.47555" lon="2.39285">
        <ele>450.52274433523</ele>
        <time>2019-12-19T14:00:37Z</time>
      </trkpt>
      <trkpt lat="43.47559" lon="2.39295">
        <ele>452.07582329679</ele>
        <time>2019-12-19T14:00:46Z</time>
      </trkpt>
      <trkpt lat="43.47555" lon="2.39285">
        <ele>455.28650283441</ele>
        <time>2019-12-19T14:01:07Z</time>
      </trkpt>
      <trkpt lat="43.47554" lon="2.39274">
        <ele>458.68114233576</ele>
        <time>2019-12-19T14:01:14Z</time>
      </trkpt>
      <trkpt lat="43.47549" lon="2.39264">
        <ele>463.84432119783</ele>
        <time>2019-12-19T14:01:26Z</time>
      </trkpt>
      <trkpt lat="43.47547" lon="2.39252">
        <ele>466.32646732591</ele>
        <time>2019-12-19T14:01:39Z</time>
      </trkpt>
      <trkpt lat="43.47549" lon="2.39241">
        <ele>466.30027539283</ele>
        <time>2019-12-19T14:01:44Z</time>
      </trkpt>
      <trkpt lat="43.47542" lon="2.39234">
        <ele>466.7315720357</ele>
        <time>2019-12-19T14:01:53Z</time>
      </trkpt>
      <trkpt lat="43.4755" lon="2.39238">
        <ele>464.08770230878</ele>
        <time>2019-12-19T14:02:13Z</time>
      </trkpt>
      <trkpt lat="43.47554" lon="2.39247">
        <ele>461.33357267361</ele>
        <time>2019-12-19T14:02:18Z</time>
      </trkpt>
      <trkpt lat="43.47556" lon="2.39259">
        <ele>458.42665719893</ele>
        <time>2019-12-19T14:02:28Z</time>
      </trkpt>
      <trkpt lat="43.47563" lon="2.39261">
        <ele>458.11715688556</ele>
        <time>2019-12-19T14:02:36Z</time>
      </trkpt>
      <trkpt lat="43.47568" lon="2.39269">
        <ele>457.08487764932</ele>
        <time>2019-12-19T14:02:44Z</time>
      </trkpt>
      <trkpt lat="43.47571" lon="2.39281">
        <ele>458.77081811801</ele>
        <time>2019-12-19T14:02:55Z</time>
      </trkpt>
      <trkpt lat="43.47574" lon="2.39292">
        <ele>460.85942209233</ele>
        <time>2019-12-19T14:03:04Z</time>
      </trkpt>
      <trkpt lat="43.47574" lon="2.39279">
        <ele>465.48461179808</ele>
        <time>2019-12-19T14:03:31Z</time>
      </trkpt>
      <trkpt lat="43.47572" lon="2.39267">
        <ele>464.49592729099</ele>
        <time>2019-12-19T14:03:40Z</time>
      </trkpt>
      <trkpt lat="43.47567" lon="2.39259">
        <ele>462.83809124678</ele>
        <time>2019-12-19T14:03:47Z</time>
      </trkpt>
      <trkpt lat="43.47565" lon="2.39249">
        <ele>466.250156519</ele>
        <time>2019-12-19T14:03:54Z</time>
      </trkpt>
      <trkpt lat="43.47566" lon="2.39237">
        <ele>470.19373248331</ele>
        <time>2019-12-19T14:04:00Z</time>
      </trkpt>
      <trkpt lat="43.4756" lon="2.39228">
        <ele>472.17772292532</ele>
        <time>2019-12-19T14:04:09Z</time>
      </trkpt>
      <trkpt lat="43.47558" lon="2.39216">
        <ele>474.66465602722</ele>
        <time>2019-12-19T14:04:19Z</time>
      </trkpt>
      <trkpt lat="43.47554" lon="2.39206">
        <ele>476.98276954889</ele>
        <time>2019-12-19T14:04:27Z</time>
      </trkpt>
      <trkpt lat="43.47548" lon="2.39198">
        <ele>478.63926698826</ele>
        <time>2019-12-19T14:04:34Z</time>
      </trkpt>
      <trkpt lat="43.47545" lon="2.39187">
        <ele>479.98836518545</ele>
        <time>2019-12-19T14:04:43Z</time>
      </trkpt>
      <trkpt lat="43.47546" lon="2.39176">
        <ele>481.16271152347</ele>
        <time>2019-12-19T14:04:51Z</time>
      </trkpt>
      <trkpt lat="43.47553" lon="2.3918">
        <ele>482.9789822828</ele>
        <time>2019-12-19T14:05:12Z</time>
      </trkpt>
      <trkpt lat="43.47558" lon="2.3919">
        <ele>482.996027519</ele>
        <time>2019-12-19T14:05:20Z</time>
      </trkpt>
      <trkpt lat="43.47566" lon="2.39194">
        <ele>483.3998334473</ele>
        <time>2019-12-19T14:05:27Z</time>
      </trkpt>
      <trkpt lat="43.47569" lon="2.39206">
        <ele>480.23145842738</ele>
        <time>2019-12-19T14:05:37Z</time>
      </trkpt>
      <trkpt lat="43.47574" lon="2.39215">
        <ele>480.69773638994</ele>
        <time>2019-12-19T14:05:46Z</time>
      </trkpt>
      <trkpt lat="43.47574" lon="2.39227">
        <ele>479.1380759161</ele>
        <time>2019-12-19T14:05:52Z</time>
      </trkpt>
      <trkpt lat="43.47578" lon="2.39238">
        <ele>476.59627440199</ele>
        <time>2019-12-19T14:06:01Z</time>
      </trkpt>
      <trkpt lat="43.47585" lon="2.39245">
        <ele>477.03362065647</ele>
        <time>2019-12-19T14:06:10Z</time>
      </trkpt>
      <trkpt lat="43.47592" lon="2.39253">
        <ele>479.71985102631</ele>
        <time>2019-12-19T14:06:18Z</time>
      </trkpt>
      <trkpt lat="43.47597" lon="2.39261">
        <ele>478.54839128722</ele>
        <time>2019-12-19T14:06:27Z</time>
      </trkpt>
      <trkpt lat="43.47598" lon="2.39274">
        <ele>478.72335509118</ele>
        <time>2019-12-19T14:06:33Z</time>
      </trkpt>
      <trkpt lat="43.47599" lon="2.39284">
        <ele>487.7433655085</ele>
        <time>2019-12-19T14:06:58Z</time>
      </trkpt>
      <trkpt lat="43.476" lon="2.39296">
        <ele>486.89143383037</ele>
        <time>2019-12-19T14:07:05Z</time>
      </trkpt>
      <trkpt lat="43.47605" lon="2.39304">
        <ele>487.18194964528</ele>
        <time>2019-12-19T14:07:17Z</time>
      </trkpt>
      <trkpt lat="43.47606" lon="2.39316">
        <ele>487.86367981136</ele>
        <time>2019-12-19T14:07:22Z</time>
      </trkpt>
      <trkpt lat="43.4761" lon="2.39325">
        <ele>490.44002484996</ele>
        <time>2019-12-19T14:07:40Z</time>
      </trkpt>
      <trkpt lat="43.47608" lon="2.39338">
        <ele>491.02625043504</ele>
        <time>2019-12-19T14:07:44Z</time>
      </trkpt>
      <trkpt lat="43.47609" lon="2.3935">
        <ele>492.29642093647</ele>
        <time>2019-12-19T14:07:50Z</time>
      </trkpt>
      <trkpt lat="43.47608" lon="2.39362">
        <ele>492.29965414852</ele>
        <time>2019-12-19T14:07:57Z</time>
      </trkpt>
      <trkpt lat="43.47608" lon="2.39374">
        <ele>491.66431782302</ele>
        <time>2019-12-19T14:08:06Z</time>
      </trkpt>
      <trkpt lat="43.47609" lon="2.39385">
        <ele>491.17111951485</ele>
        <time>2019-12-19T14:08:14Z</time>
      </trkpt>
      <trkpt lat="43.47613" lon="2.39395">
        <ele>493.90941105597</ele>
        <time>2019-12-19T14:08:28Z</time>
      </trkpt>
      <trkpt lat="43.47611" lon="2.39407">
        <ele>501.89596728794</ele>
        <time>2019-12-19T14:08:46Z</time>
      </trkpt>
      <trkpt lat="43.4761" lon="2.39417">
        <ele>505.42368423566</ele>
        <time>2019-12-19T14:08:52Z</time>
      </trkpt>
      <trkpt lat="43.47608" lon="2.39428">
        <ele>505.5953183528</ele>
        <time>2019-12-19T14:09:03Z</time>
      </trkpt>
      <trkpt lat="43.47601" lon="2.39436">
        <ele>509.0993843982</ele>
        <time>2019-12-19T14:09:14Z</time>
      </trkpt>
      <trkpt lat="43.47603" lon="2.39447">
        <ele>508.93276475929</ele>
        <time>2019-12-19T14:09:27Z</time>
      </trkpt>
      <trkpt lat="43.47601" lon="2.39458">
        <ele>509.82794235181</ele>
        <time>2019-12-19T14:09:38Z</time>
      </trkpt>
      <trkpt lat="43.476" lon="2.39469">
        <ele>511.59098690748</ele>
        <time>2019-12-19T14:09:49Z</time>
      </trkpt>
      <trkpt lat="43.47601" lon="2.39458">
        <ele>514.31029153522</ele>
        <time>2019-12-19T14:10:09Z</time>
      </trkpt>
      <trkpt lat="43.47601" lon="2.39446">
        <ele>513.32515613642</ele>
        <time>2019-12-19T14:10:18Z</time>
      </trkpt>
      <trkpt lat="43.47604" lon="2.39435">
        <ele>512.03794818372</ele>
        <time>2019-12-19T14:10:25Z</time>
      </trkpt>
      <trkpt lat="43.47608" lon="2.39426">
        <ele>511.28481672518</ele>
        <time>2019-12-19T14:10:35Z</time>
      </trkpt>
      <trkpt lat="43.4761" lon="2.39414">
        <ele>514.28015078325</ele>
        <time>2019-12-19T14:10:43Z</time>
      </trkpt>
      <trkpt lat="43.47613" lon="2.39404">
        <ele>517.70928658731</ele>
        <time>2019-12-19T14:10:52Z</time>
      </trkpt>
      <trkpt lat="43.47619" lon="2.39394">
        <ele>517.96488982718</ele>
        <time>2019-12-19T14:11:02Z</time>
      </trkpt>
      <trkpt lat="43.47623" lon="2.39384">
        <ele>518.69720932841</ele>
        <time>2019-12-19T14:11:14Z</time>
      </trkpt>
      <trkpt lat="43.47626" lon="2.39374">
        <ele>520.04038595781</ele>
        <time>2019-12-19T14:11:21Z</time>
      </trkpt>
      <trkpt lat="43.4763" lon="2.39363">
        <ele>519.98096653912</ele>
        <time>2019-12-19T14:11:27Z</time>
      </trkpt>
      <trkpt lat="43.47633" lon="2.39352">
        <ele>519.84123842325</ele>
        <time>2019-12-19T14:11:42Z</time>
      </trkpt>
      <trkpt lat="43.47638" lon="2.39362">
        <ele>522.93448280543</ele>
        <time>2019-12-19T14:11:52Z</time>
      </trkpt>
      <trkpt lat="43.47639" lon="2.39374">
        <ele>524.92471289448</ele>
        <time>2019-12-19T14:11:59Z</time>
      </trkpt>
      <trkpt lat="43.4764" lon="2.39386">
        <ele>526.45623277407</ele>
        <time>2019-12-19T14:12:09Z</time>
      </trkpt>
      <trkpt lat="43.47637" lon="2.39397">
        <ele>526.43131863885</ele>
        <time>2019-12-19T14:12:15Z</time>
      </trkpt>
      <trkpt lat="43.47635" lon="2.39408">
        <ele>528.92654275335</ele>
        <time>2019-12-19T14:12:28Z</time>
      </trkpt>
      <trkpt lat="43.47631" lon="2.39419">
        <ele>531.13013370521</ele>
        <time>2019-12-19T14:12:34Z</time>
      </trkpt>
      <trkpt lat="43.47628" lon="2.39429">
        <ele>531.41259438638</ele>
        <time>2019-12-19T14:12:41Z</time>
      </trkpt>
      <trkpt lat="43.47625" lon="2.3944">
        <ele>532.46179897524</ele>
        <time>2019-12-19T14:12:50Z</time>
      </trkpt>
      <trkpt lat="43.47624" lon="2.39452">
        <ele>534.12677929457</ele>
        <time>2019-12-19T14:13:10Z</time>
      </trkpt>
      <trkpt lat="43.47622" lon="2.39462">
        <ele>534.261952742</ele>
        <time>2019-12-19T14:13:21Z</time>
      </trkpt>
      <trkpt lat="43.47623" lon="2.39473">
        <ele>535.11188365519</ele>
        <time>2019-12-19T14:13:31Z</time>
      </trkpt>
      <trkpt lat="43.47621" lon="2.39484">
        <ele>536.2042515697</ele>
        <time>2019-12-19T14:13:40Z</time>
      </trkpt>
      <trkpt lat="43.47618" lon="2.39496">
        <ele>539.17112381849</ele>
        <time>2019-12-19T14:13:52Z</time>
      </trkpt>
      <trkpt lat="43.47616" lon="2.39507">
        <ele>538.83648383431</ele>
        <time>2019-12-19T14:13:58Z</time>
      </trkpt>
      <trkpt lat="43.47613" lon="2.39517">
        <ele>540.41063186247</ele>
        <time>2019-12-19T14:14:05Z</time>
      </trkpt>
      <trkpt lat="43.47609" lon="2.39527">
        <ele>541.1907973662</ele>
        <time>2019-12-19T14:14:13Z</time>
      </trkpt>
      <trkpt lat="43.47605" lon="2.39536">
        <ele>541.87632727902</ele>
        <time>2019-12-19T14:14:23Z</time>
      </trkpt>
      <trkpt lat="43.476" lon="2.39544">
        <ele>543.69569468964</ele>
        <time>2019-12-19T14:14:29Z</time>
      </trkpt>
      <trkpt lat="43.47596" lon="2.39555">
        <ele>546.77769426256</ele>
        <time>2019-12-19T14:14:46Z</time>
      </trkpt>
      <trkpt lat="43.47592" lon="2.39564">
        <ele>546.26732891239</ele>
        <time>2019-12-19T14:14:51Z</time>
      </trkpt>
      <trkpt lat="43.47584" lon="2.39571">
        <ele>543.88032896444</ele>
        <time>2019-12-19T14:14:59Z</time>
      </trkpt>
      <trkpt lat="43.47577" lon="2.39576">
        <ele>543.77235419396</ele>
        <time>2019-12-19T14:15:15Z</time>
      </trkpt>
      <trkpt lat="43.47572" lon="2.39586">
        <ele>542.96274557896</ele>
        <time>2019-12-19T14:15:29Z</time>
      </trkpt>
      <trkpt lat="43.47567" lon="2.39595">
        <ele>541.63724042568</ele>
        <time>2019-12-19T14:15:36Z</time>
      </trkpt>
      <trkpt lat="43.47561" lon="2.39604">
        <ele>540.51468445268</ele>
        <time>2019-12-19T14:15:42Z</time>
      </trkpt>
      <trkpt lat="43.47556" lon="2.39613">
        <ele>540.16317930259</ele>
        <time>2019-12-19T14:15:53Z</time>
      </trkpt>
      <trkpt lat="43.47551" lon="2.39623">
        <ele>540.95829999633</ele>
        <time>2019-12-19T14:16:03Z</time>
      </trkpt>
      <trkpt lat="43.47544" lon="2.39632">
        <ele>543.81709454767</ele>
        <time>2019-12-19T14:16:14Z</time>
      </trkpt>
      <trkpt lat="43.47542" lon="2.39642">
        <ele>545.83979486581</ele>
        <time>2019-12-19T14:16:20Z</time>
      </trkpt>
      <trkpt lat="43.4754" lon="2.39653">
        <ele>546.38729586918</ele>
        <time>2019-12-19T14:16:26Z</time>
      </trkpt>
      <trkpt lat="43.47538" lon="2.39664">
        <ele>546.45041211229</ele>
        <time>2019-12-19T14:16:52Z</time>
      </trkpt>
      <trkpt lat="43.47537" lon="2.39676">
        <ele>550.05845969263</ele>
        <time>2019-12-19T14:17:02Z</time>
      </trkpt>
      <trkpt lat="43.47533" lon="2.39686">
        <ele>548.05920393392</ele>
        <time>2019-12-19T14:17:14Z</time>
      </trkpt>
      <trkpt lat="43.47528" lon="2.39696">
        <ele>549.81286138482</ele>
        <time>2019-12-19T14:17:25Z</time>
      </trkpt>
      <trkpt lat="43.47525" lon="2.39706">
        <ele>550.55623526312</ele>
        <time>2019-12-19T14:17:37Z</time>
      </trkpt>
      <trkpt lat="43.47523" lon="2.39717">
        <ele>552.23831132706</ele>
        <time>2019-12-19T14:17:47Z</time>
      </trkpt>
      <trkpt lat="43.47519" lon="2.39726">
        <ele>551.65760805365</ele>
        <time>2019-12-19T14:17:54Z</time>
      </trkpt>
      <trkpt lat="43.47516" lon="2.39737">
        <ele>552.71026830375</ele>
        <time>2019-12-19T14:18:14Z</time>
      </trkpt>
      <trkpt lat="43.47511" lon="2.39746">
        <ele>551.37244119775</ele>
        <time>2019-12-19T14:18:20Z</time>
      </trkpt>
      <trkpt lat="43.47507" lon="2.39758">
        <ele>552.26418013778</ele>
        <time>2019-12-19T14:18:28Z</time>
      </trkpt>
      <trkpt lat="43.47507" lon="2.39769">
        <ele>559.64855309017</ele>
        <time>2019-12-19T14:18:39Z</time>
      </trkpt>
      <trkpt lat="43.4751" lon="2.3978">
        <ele>564.56487036962</ele>
        <time>2019-12-19T14:18:50Z</time>
      </trkpt>
      <trkpt lat="43.47508" lon="2.39791">
        <ele>565.07946774457</ele>
        <time>2019-12-19T14:19:00Z</time>
      </trkpt>
      <trkpt lat="43.47512" lon="2.39802">
        <ele>564.90612581745</ele>
        <time>2019-12-19T14:19:06Z</time>
      </trkpt>
      <trkpt lat="43.4751" lon="2.39812">
        <ele>563.59943530057</ele>
        <time>2019-12-19T14:19:12Z</time>
      </trkpt>
      <trkpt lat="43.47509" lon="2.39824">
        <ele>561.5577805629</ele>
        <time>2019-12-19T14:19:17Z</time>
      </trkpt>
      <trkpt lat="43.47511" lon="2.39835">
        <ele>565.00378521997</ele>
        <time>2019-12-19T14:19:30Z</time>
      </trkpt>
      <trkpt lat="43.47512" lon="2.39847">
        <ele>563.6973362416</ele>
        <time>2019-12-19T14:19:39Z</time>
      </trkpt>
      <trkpt lat="43.47519" lon="2.3984">
        <ele>563.84376196377</ele>
        <time>2019-12-19T14:20:13Z</time>
      </trkpt>
      <trkpt lat="43.47523" lon="2.39831">
        <ele>562.96361723077</ele>
        <time>2019-12-19T14:20:27Z</time>
      </trkpt>
      <trkpt lat="43.47528" lon="2.39822">
        <ele>556.79620520771</ele>
        <time>2019-12-19T14:21:24Z</time>
      </trkpt>
      <trkpt lat="43.4753" lon="2.3981">
        <ele>557.56193118263</ele>
        <time>2019-12-19T14:21:33Z</time>
      </trkpt>
      <trkpt lat="43.47531" lon="2.398">
        <ele>561.10965139419</ele>
        <time>2019-12-19T14:21:42Z</time>
      </trkpt>
      <trkpt lat="43.47532" lon="2.39789">
        <ele>561.1738905767</ele>
        <time>2019-12-19T14:21:47Z</time>
      </trkpt>
      <trkpt lat="43.47533" lon="2.39774">
        <ele>560.13890529145</ele>
        <time>2019-12-19T14:21:51Z</time>
      </trkpt>
      <trkpt lat="43.4754" lon="2.39781">
        <ele>563.34274369478</ele>
        <time>2019-12-19T14:22:07Z</time>
      </trkpt>
      <trkpt lat="43.47543" lon="2.39792">
        <ele>565.14924446959</ele>
        <time>2019-12-19T14:22:14Z</time>
      </trkpt>
      <trkpt lat="43.47547" lon="2.39801">
        <ele>566.44263088703</ele>
        <time>2019-12-19T14:22:20Z</time>
      </trkpt>
      <trkpt lat="43.47553" lon="2.3981">
        <ele>568.18199125212</ele>
        <time>2019-12-19T14:22:25Z</time>
      </trkpt>
      <trkpt lat="43.47558" lon="2.3982">
        <ele>570.12996483408</ele>
        <time>2019-12-19T14:22:32Z</time>
      </trkpt>
      <trkpt lat="43.4756" lon="2.39831">
        <ele>571.28726338129</ele>
        <time>2019-12-19T14:22:39Z</time>
      </trkpt>
      <trkpt lat="43.47562" lon="2.39842">
        <ele>571.51323187258</ele>
        <time>2019-12-19T14:22:45Z</time>
      </trkpt>
      <trkpt lat="43.47566" lon="2.39852">
        <ele>573.54513396695</ele>
        <time>2019-12-19T14:22:53Z</time>
      </trkpt>
      <trkpt lat="43.47566" lon="2.39864">
        <ele>571.31538151484</ele>
        <time>2019-12-19T14:23:00Z</time>
      </trkpt>
      <trkpt lat="43.47565" lon="2.39875">
        <ele>573.36680257041</ele>
        <time>2019-12-19T14:23:06Z</time>
      </trkpt>
      <trkpt lat="43.4757" lon="2.39885">
        <ele>572.04388436303</ele>
        <time>2019-12-19T14:23:11Z</time>
      </trkpt>
      <trkpt lat="43.47571" lon="2.39897">
        <ele>572.18899917975</ele>
        <time>2019-12-19T14:23:27Z</time>
      </trkpt>
      <trkpt lat="43.47576" lon="2.39905">
        <ele>573.05061585549</ele>
        <time>2019-12-19T14:23:32Z</time>
      </trkpt>
      <trkpt lat="43.4758" lon="2.39915">
        <ele>575.18222240359</ele>
        <time>2019-12-19T14:23:40Z</time>
      </trkpt>
      <trkpt lat="43.47583" lon="2.39926">
        <ele>574.52880089264</ele>
        <time>2019-12-19T14:23:45Z</time>
      </trkpt>
      <trkpt lat="43.47587" lon="2.39935">
        <ele>575.63240752462</ele>
        <time>2019-12-19T14:23:53Z</time>
      </trkpt>
      <trkpt lat="43.47589" lon="2.39947">
        <ele>575.67463419773</ele>
        <time>2019-12-19T14:24:16Z</time>
      </trkpt>
      <trkpt lat="43.47591" lon="2.39956">
        <ele>575.33228703309</ele>
        <time>2019-12-19T14:24:30Z</time>
      </trkpt>
      <trkpt lat="43.47586" lon="2.39967">
        <ele>572.82795760408</ele>
        <time>2019-12-19T14:24:34Z</time>
      </trkpt>
      <trkpt lat="43.47585" lon="2.39979">
        <ele>569.83864961471</ele>
        <time>2019-12-19T14:24:46Z</time>
      </trkpt>
      <trkpt lat="43.47577" lon="2.39974">
        <ele>577.83277653903</ele>
        <time>2019-12-19T14:25:27Z</time>
      </trkpt>
      <trkpt lat="43.47574" lon="2.39984">
        <ele>578.82539236173</ele>
        <time>2019-12-19T14:25:33Z</time>
      </trkpt>
      <trkpt lat="43.47575" lon="2.39994">
        <ele>576.12745342404</ele>
        <time>2019-12-19T14:25:37Z</time>
      </trkpt>
      <trkpt lat="43.47576" lon="2.40005">
        <ele>573.95017923415</ele>
        <time>2019-12-19T14:25:43Z</time>
      </trkpt>
      <trkpt lat="43.47574" lon="2.40016">
        <ele>575.70822475944</ele>
        <time>2019-12-19T14:25:50Z</time>
      </trkpt>
      <trkpt lat="43.47571" lon="2.40026">
        <ele>574.4124636855</ele>
        <time>2019-12-19T14:25:57Z</time>
      </trkpt>
      <trkpt lat="43.4757" lon="2.40037">
        <ele>573.09622783959</ele>
        <time>2019-12-19T14:26:04Z</time>
      </trkpt>
      <trkpt lat="43.47567" lon="2.40048">
        <ele>574.44911233056</ele>
        <time>2019-12-19T14:26:11Z</time>
      </trkpt>
      <trkpt lat="43.47564" lon="2.40059">
        <ele>575.2313259067</ele>
        <time>2019-12-19T14:26:18Z</time>
      </trkpt>
      <trkpt lat="43.47562" lon="2.40069">
        <ele>575.01576948632</ele>
        <time>2019-12-19T14:26:26Z</time>
      </trkpt>
      <trkpt lat="43.4756" lon="2.4008">
        <ele>573.77050137799</ele>
        <time>2019-12-19T14:26:33Z</time>
      </trkpt>
      <trkpt lat="43.47558" lon="2.4009">
        <ele>574.19088638201</ele>
        <time>2019-12-19T14:26:38Z</time>
      </trkpt>
      <trkpt lat="43.47556" lon="2.40101">
        <ele>575.03769552521</ele>
        <time>2019-12-19T14:26:44Z</time>
      </trkpt>
      <trkpt lat="43.47557" lon="2.40113">
        <ele>580.23500714451</ele>
        <time>2019-12-19T14:26:58Z</time>
      </trkpt>
      <trkpt lat="43.47563" lon="2.40121">
        <ele>581.9667649325</ele>
        <time>2019-12-19T14:27:06Z</time>
      </trkpt>
      <trkpt lat="43.47571" lon="2.40124">
        <ele>583.96215100121</ele>
        <time>2019-12-19T14:27:12Z</time>
      </trkpt>
      <trkpt lat="43.4758" lon="2.40125">
        <ele>585.49681147188</ele>
        <time>2019-12-19T14:27:21Z</time>
      </trkpt>
      <trkpt lat="43.47587" lon="2.40118">
        <ele>583.38769410271</ele>
        <time>2019-12-19T14:27:58Z</time>
      </trkpt>
      <trkpt lat="43.47594" lon="2.40113">
        <ele>585.59042407013</ele>
        <time>2019-12-19T14:28:19Z</time>
      </trkpt>
      <trkpt lat="43.47597" lon="2.40104">
        <ele>586.86911247205</ele>
        <time>2019-12-19T14:28:23Z</time>
      </trkpt>
      <trkpt lat="43.47599" lon="2.40093">
        <ele>584.93412394356</ele>
        <time>2019-12-19T14:28:33Z</time>
      </trkpt>
      <trkpt lat="43.47595" lon="2.40083">
        <ele>582.01889494341</ele>
        <time>2019-12-19T14:28:39Z</time>
      </trkpt>
      <trkpt lat="43.47593" lon="2.40072">
        <ele>581.0703567192</ele>
        <time>2019-12-19T14:28:45Z</time>
      </trkpt>
      <trkpt lat="43.47598" lon="2.40063">
        <ele>581.57896598428</ele>
        <time>2019-12-19T14:28:56Z</time>
      </trkpt>
      <trkpt lat="43.47601" lon="2.40052">
        <ele>582.97860508505</ele>
        <time>2019-12-19T14:29:04Z</time>
      </trkpt>
      <trkpt lat="43.47601" lon="2.40042">
        <ele>589.05118169263</ele>
        <time>2019-12-19T14:29:44Z</time>
      </trkpt>
      <trkpt lat="43.47604" lon="2.40031">
        <ele>586.01941872668</ele>
        <time>2019-12-19T14:29:50Z</time>
      </trkpt>
      <trkpt lat="43.47606" lon="2.40019">
        <ele>584.93194541242</ele>
        <time>2019-12-19T14:30:01Z</time>
      </trkpt>
      <trkpt lat="43.47608" lon="2.40007">
        <ele>581.64211524464</ele>
        <time>2019-12-19T14:30:09Z</time>
      </trkpt>
      <trkpt lat="43.4761" lon="2.39998">
        <ele>578.87016367726</ele>
        <time>2019-12-19T14:30:49Z</time>
      </trkpt>
      <trkpt lat="43.47617" lon="2.3999">
        <ele>579.80079491995</ele>
        <time>2019-12-19T14:30:55Z</time>
      </trkpt>
      <trkpt lat="43.4762" lon="2.39979">
        <ele>578.58102330286</ele>
        <time>2019-12-19T14:31:21Z</time>
      </trkpt>
      <trkpt lat="43.47621" lon="2.39968">
        <ele>574.01942021865</ele>
        <time>2019-12-19T14:32:20Z</time>
      </trkpt>
      <trkpt lat="43.47622" lon="2.39958">
        <ele>574.97100217361</ele>
        <time>2019-12-19T14:32:29Z</time>
      </trkpt>
      <trkpt lat="43.47626" lon="2.39949">
        <ele>574.92495329399</ele>
        <time>2019-12-19T14:32:49Z</time>
      </trkpt>
      <trkpt lat="43.47628" lon="2.39938">
        <ele>575.23275516368</ele>
        <time>2019-12-19T14:32:54Z</time>
      </trkpt>
      <trkpt lat="43.4763" lon="2.39928">
        <ele>577.20590961259</ele>
        <time>2019-12-19T14:33:00Z</time>
      </trkpt>
      <trkpt lat="43.47628" lon="2.39916">
        <ele>578.23098948225</ele>
        <time>2019-12-19T14:33:10Z</time>
      </trkpt>
      <trkpt lat="43.47623" lon="2.39907">
        <ele>577.88558762707</ele>
        <time>2019-12-19T14:33:17Z</time>
      </trkpt>
      <trkpt lat="43.47619" lon="2.39897">
        <ele>576.14010064304</ele>
        <time>2019-12-19T14:33:23Z</time>
      </trkpt>
      <trkpt lat="43.47619" lon="2.39885">
        <ele>574.35927801579</ele>
        <time>2019-12-19T14:33:28Z</time>
      </trkpt>
      <trkpt lat="43.47617" lon="2.39873">
        <ele>568.87366187479</ele>
        <time>2019-12-19T14:33:35Z</time>
      </trkpt>
      <trkpt lat="43.47616" lon="2.39862">
        <ele>565.62781200372</ele>
        <time>2019-12-19T14:33:46Z</time>
      </trkpt>
      <trkpt lat="43.47613" lon="2.39851">
        <ele>565.81004530005</ele>
        <time>2019-12-19T14:33:54Z</time>
      </trkpt>
      <trkpt lat="43.47612" lon="2.39839">
        <ele>566.04920969065</ele>
        <time>2019-12-19T14:34:02Z</time>
      </trkpt>
      <trkpt lat="43.47609" lon="2.39828">
        <ele>571.36290086154</ele>
        <time>2019-12-19T14:34:09Z</time>
      </trkpt>
      <trkpt lat="43.47607" lon="2.39817">
        <ele>574.8706436716</ele>
        <time>2019-12-19T14:34:14Z</time>
      </trkpt>
      <trkpt lat="43.47609" lon="2.39805">
        <ele>576.09434189834</ele>
        <time>2019-12-19T14:34:19Z</time>
      </trkpt>
      <trkpt lat="43.47608" lon="2.39795">
        <ele>578.06475196965</ele>
        <time>2019-12-19T14:34:27Z</time>
      </trkpt>
      <trkpt lat="43.47604" lon="2.39784">
        <ele>577.46036781091</ele>
        <time>2019-12-19T14:34:34Z</time>
      </trkpt>
      <trkpt lat="43.47606" lon="2.39772">
        <ele>575.63575474638</ele>
        <time>2019-12-19T14:34:40Z</time>
      </trkpt>
      <trkpt lat="43.47603" lon="2.39761">
        <ele>577.23183921259</ele>
        <time>2019-12-19T14:34:48Z</time>
      </trkpt>
      <trkpt lat="43.47603" lon="2.39749">
        <ele>578.62369062286</ele>
        <time>2019-12-19T14:34:58Z</time>
      </trkpt>
      <trkpt lat="43.47603" lon="2.39737">
        <ele>580.39831964578</ele>
        <time>2019-12-19T14:35:05Z</time>
      </trkpt>
      <trkpt lat="43.47606" lon="2.39723">
        <ele>578.84066188522</ele>
        <time>2019-12-19T14:35:10Z</time>
      </trkpt>
      <trkpt lat="43.47609" lon="2.39712">
        <ele>576.99871944636</ele>
        <time>2019-12-19T14:35:15Z</time>
      </trkpt>
      <trkpt lat="43.47615" lon="2.39704">
        <ele>575.74208414182</ele>
        <time>2019-12-19T14:35:22Z</time>
      </trkpt>
      <trkpt lat="43.47621" lon="2.39696">
        <ele>577.6012879191</ele>
        <time>2019-12-19T14:35:29Z</time>
      </trkpt>
      <trkpt lat="43.47625" lon="2.39686">
        <ele>576.63228888158</ele>
        <time>2019-12-19T14:35:38Z</time>
      </trkpt>
      <trkpt lat="43.47631" lon="2.39678">
        <ele>575.59283795301</ele>
        <time>2019-12-19T14:35:43Z</time>
      </trkpt>
      <trkpt lat="43.47638" lon="2.39673">
        <ele>576.54493940994</ele>
        <time>2019-12-19T14:35:51Z</time>
      </trkpt>
      <trkpt lat="43.47646" lon="2.39668">
        <ele>580.94565643743</ele>
        <time>2019-12-19T14:35:59Z</time>
      </trkpt>
      <trkpt lat="43.47654" lon="2.39663">
        <ele>581.7249743687</ele>
        <time>2019-12-19T14:36:06Z</time>
      </trkpt>
      <trkpt lat="43.47661" lon="2.39655">
        <ele>583.74096017424</ele>
        <time>2019-12-19T14:36:15Z</time>
      </trkpt>
      <trkpt lat="43.47668" lon="2.39648">
        <ele>587.35728842206</ele>
        <time>2019-12-19T14:36:29Z</time>
      </trkpt>
      <trkpt lat="43.47675" lon="2.39642">
        <ele>586.89535979182</ele>
        <time>2019-12-19T14:36:35Z</time>
      </trkpt>
      <trkpt lat="43.47682" lon="2.39638">
        <ele>586.30625862814</ele>
        <time>2019-12-19T14:36:42Z</time>
      </trkpt>
      <trkpt lat="43.4769" lon="2.39631">
        <ele>588.35034631379</ele>
        <time>2019-12-19T14:36:49Z</time>
      </trkpt>
      <trkpt lat="43.47695" lon="2.39624">
        <ele>588.74080352392</ele>
        <time>2019-12-19T14:36:55Z</time>
      </trkpt>
      <trkpt lat="43.47704" lon="2.39619">
        <ele>588.62392771337</ele>
        <time>2019-12-19T14:37:00Z</time>
      </trkpt>
      <trkpt lat="43.47712" lon="2.39615">
        <ele>587.24063178618</ele>
        <time>2019-12-19T14:37:07Z</time>
      </trkpt>
      <trkpt lat="43.47717" lon="2.39605">
        <ele>588.57171479892</ele>
        <time>2019-12-19T14:37:17Z</time>
      </trkpt>
      <trkpt lat="43.47724" lon="2.39599">
        <ele>594.01429543458</ele>
        <time>2019-12-19T14:37:27Z</time>
      </trkpt>
      <trkpt lat="43.47732" lon="2.39594">
        <ele>596.91492286231</ele>
        <time>2019-12-19T14:37:36Z</time>
      </trkpt>
      <trkpt lat="43.47739" lon="2.39587">
        <ele>596.36859663669</ele>
        <time>2019-12-19T14:37:43Z</time>
      </trkpt>
      <trkpt lat="43.47746" lon="2.39581">
        <ele>594.41640161816</ele>
        <time>2019-12-19T14:37:53Z</time>
      </trkpt>
      <trkpt lat="43.4775" lon="2.39571">
        <ele>592.75724192802</ele>
        <time>2019-12-19T14:37:59Z</time>
      </trkpt>
      <trkpt lat="43.47756" lon="2.39563">
        <ele>589.98782936856</ele>
        <time>2019-12-19T14:38:07Z</time>
      </trkpt>
      <trkpt lat="43.47762" lon="2.39555">
        <ele>588.21219462249</ele>
        <time>2019-12-19T14:38:13Z</time>
      </trkpt>
      <trkpt lat="43.4777" lon="2.39551">
        <ele>588.46585432254</ele>
        <time>2019-12-19T14:38:21Z</time>
      </trkpt>
      <trkpt lat="43.47777" lon="2.39548">
        <ele>586.83687477186</ele>
        <time>2019-12-19T14:38:28Z</time>
      </trkpt>
      <trkpt lat="43.47784" lon="2.39541">
        <ele>586.22381234728</ele>
        <time>2019-12-19T14:38:37Z</time>
      </trkpt>
      <trkpt lat="43.47791" lon="2.39534">
        <ele>589.46212504618</ele>
        <time>2019-12-19T14:38:45Z</time>
      </trkpt>
      <trkpt lat="43.47797" lon="2.39526">
        <ele>590.06728281733</ele>
        <time>2019-12-19T14:38:54Z</time>
      </trkpt>
      <trkpt lat="43.47804" lon="2.3952">
        <ele>588.01726152003</ele>
        <time>2019-12-19T14:39:01Z</time>
      </trkpt>
      <trkpt lat="43.4781" lon="2.39513">
        <ele>590.06731035188</ele>
        <time>2019-12-19T14:39:06Z</time>
      </trkpt>
      <trkpt lat="43.47817" lon="2.39506">
        <ele>591.58174327295</ele>
        <time>2019-12-19T14:39:12Z</time>
      </trkpt>
      <trkpt lat="43.47824" lon="2.39499">
        <ele>591.66805936117</ele>
        <time>2019-12-19T14:39:21Z</time>
      </trkpt>
      <trkpt lat="43.4783" lon="2.39491">
        <ele>593.34802087676</ele>
        <time>2019-12-19T14:39:29Z</time>
      </trkpt>
      <trkpt lat="43.47838" lon="2.39485">
        <ele>592.3048067661</ele>
        <time>2019-12-19T14:39:37Z</time>
      </trkpt>
      <trkpt lat="43.47844" lon="2.39476">
        <ele>590.05259001534</ele>
        <time>2019-12-19T14:39:43Z</time>
      </trkpt>
      <trkpt lat="43.47849" lon="2.39468">
        <ele>589.41744383145</ele>
        <time>2019-12-19T14:39:49Z</time>
      </trkpt>
      <trkpt lat="43.47854" lon="2.39458">
        <ele>587.98321267124</ele>
        <time>2019-12-19T14:39:55Z</time>
      </trkpt>
      <trkpt lat="43.47856" lon="2.39447">
        <ele>586.39014439564</ele>
        <time>2019-12-19T14:40:00Z</time>
      </trkpt>
      <trkpt lat="43.47858" lon="2.39437">
        <ele>584.32587395888</ele>
        <time>2019-12-19T14:40:05Z</time>
      </trkpt>
      <trkpt lat="43.47864" lon="2.39428">
        <ele>583.52411455847</ele>
        <time>2019-12-19T14:40:10Z</time>
      </trkpt>
      <trkpt lat="43.47871" lon="2.3942">
        <ele>583.27315869741</ele>
        <time>2019-12-19T14:40:16Z</time>
      </trkpt>
      <trkpt lat="43.47878" lon="2.39414">
        <ele>581.01904041506</ele>
        <time>2019-12-19T14:40:27Z</time>
      </trkpt>
      <trkpt lat="43.47885" lon="2.39408">
        <ele>581.27930343803</ele>
        <time>2019-12-19T14:40:36Z</time>
      </trkpt>
      <trkpt lat="43.47891" lon="2.39401">
        <ele>581.17417504638</ele>
        <time>2019-12-19T14:40:43Z</time>
      </trkpt>
      <trkpt lat="43.47897" lon="2.39393">
        <ele>582.8275698293</ele>
        <time>2019-12-19T14:40:50Z</time>
      </trkpt>
      <trkpt lat="43.47902" lon="2.39384">
        <ele>583.65783543326</ele>
        <time>2019-12-19T14:40:57Z</time>
      </trkpt>
      <trkpt lat="43.47908" lon="2.39376">
        <ele>585.25812381599</ele>
        <time>2019-12-19T14:41:07Z</time>
      </trkpt>
      <trkpt lat="43.47913" lon="2.39367">
        <ele>586.94470591471</ele>
        <time>2019-12-19T14:41:15Z</time>
      </trkpt>
      <trkpt lat="43.4792" lon="2.39358">
        <ele>587.40459904913</ele>
        <time>2019-12-19T14:41:20Z</time>
      </trkpt>
      <trkpt lat="43.47926" lon="2.3935">
        <ele>589.38143522665</ele>
        <time>2019-12-19T14:41:32Z</time>
      </trkpt>
      <trkpt lat="43.47933" lon="2.39346">
        <ele>588.10681379773</ele>
        <time>2019-12-19T14:41:43Z</time>
      </trkpt>
      <trkpt lat="43.47939" lon="2.39338">
        <ele>588.07228028681</ele>
        <time>2019-12-19T14:41:48Z</time>
      </trkpt>
      <trkpt lat="43.47948" lon="2.39336">
        <ele>587.55643284786</ele>
        <time>2019-12-19T14:41:59Z</time>
      </trkpt>
      <trkpt lat="43.47954" lon="2.39329">
        <ele>585.32800950669</ele>
        <time>2019-12-19T14:42:07Z</time>
      </trkpt>
      <trkpt lat="43.47962" lon="2.39327">
        <ele>583.1996117672</ele>
        <time>2019-12-19T14:42:15Z</time>
      </trkpt>
      <trkpt lat="43.4797" lon="2.3932">
        <ele>581.83957496844</ele>
        <time>2019-12-19T14:42:20Z</time>
      </trkpt>
      <trkpt lat="43.47978" lon="2.39312">
        <ele>578.34377284255</ele>
        <time>2019-12-19T14:42:24Z</time>
      </trkpt>
      <trkpt lat="43.47985" lon="2.39306">
        <ele>578.0112538673</ele>
        <time>2019-12-19T14:42:30Z</time>
      </trkpt>
      <trkpt lat="43.47992" lon="2.39299">
        <ele>577.05265952926</ele>
        <time>2019-12-19T14:42:43Z</time>
      </trkpt>
      <trkpt lat="43.47995" lon="2.39288">
        <ele>576.76513307635</ele>
        <time>2019-12-19T14:42:54Z</time>
      </trkpt>
      <trkpt lat="43.47998" lon="2.39277">
        <ele>575.66801049747</ele>
        <time>2019-12-19T14:43:02Z</time>
      </trkpt>
      <trkpt lat="43.48004" lon="2.39268">
        <ele>574.05811302084</ele>
        <time>2019-12-19T14:43:11Z</time>
      </trkpt>
      <trkpt lat="43.48009" lon="2.39259">
        <ele>572.2677465817</ele>
        <time>2019-12-19T14:43:19Z</time>
      </trkpt>
      <trkpt lat="43.4801" lon="2.39247">
        <ele>571.28930035979</ele>
        <time>2019-12-19T14:43:25Z</time>
      </trkpt>
      <trkpt lat="43.48013" lon="2.39236">
        <ele>570.94464142248</ele>
        <time>2019-12-19T14:43:32Z</time>
      </trkpt>
      <trkpt lat="43.48015" lon="2.39226">
        <ele>570.6748606367</ele>
        <time>2019-12-19T14:43:39Z</time>
      </trkpt>
      <trkpt lat="43.48019" lon="2.39216">
        <ele>569.04011352919</ele>
        <time>2019-12-19T14:43:47Z</time>
      </trkpt>
      <trkpt lat="43.48025" lon="2.39207">
        <ele>567.6957971612</ele>
        <time>2019-12-19T14:43:56Z</time>
      </trkpt>
      <trkpt lat="43.48029" lon="2.39197">
        <ele>567.48564457707</ele>
        <time>2019-12-19T14:44:02Z</time>
      </trkpt>
      <trkpt lat="43.48034" lon="2.39187">
        <ele>566.06012961734</ele>
        <time>2019-12-19T14:44:09Z</time>
      </trkpt>
      <trkpt lat="43.48037" lon="2.39176">
        <ele>565.96264359914</ele>
        <time>2019-12-19T14:44:15Z</time>
      </trkpt>
      <trkpt lat="43.48042" lon="2.39166">
        <ele>563.67014907673</ele>
        <time>2019-12-19T14:44:24Z</time>
      </trkpt>
      <trkpt lat="43.48047" lon="2.39158">
        <ele>562.84850045666</ele>
        <time>2019-12-19T14:44:32Z</time>
      </trkpt>
      <trkpt lat="43.4805" lon="2.39146">
        <ele>561.78701392841</ele>
        <time>2019-12-19T14:44:39Z</time>
      </trkpt>
      <trkpt lat="43.48054" lon="2.39135">
        <ele>562.21581858955</ele>
        <time>2019-12-19T14:44:46Z</time>
      </trkpt>
      <trkpt lat="43.48056" lon="2.39124">
        <ele>562.47183883563</ele>
        <time>2019-12-19T14:44:53Z</time>
      </trkpt>
      <trkpt lat="43.48061" lon="2.39115">
        <ele>563.35567731038</ele>
        <time>2019-12-19T14:45:00Z</time>
      </trkpt>
      <trkpt lat="43.48066" lon="2.39106">
        <ele>563.73895356525</ele>
        <time>2019-12-19T14:45:06Z</time>
      </trkpt>
      <trkpt lat="43.4807" lon="2.39095">
        <ele>563.01854754798</ele>
        <time>2019-12-19T14:45:17Z</time>
      </trkpt>
      <trkpt lat="43.48072" lon="2.39083">
        <ele>562.16977212299</ele>
        <time>2019-12-19T14:45:23Z</time>
      </trkpt>
      <trkpt lat="43.48076" lon="2.39072">
        <ele>564.05617937259</ele>
        <time>2019-12-19T14:45:32Z</time>
      </trkpt>
      <trkpt lat="43.48079" lon="2.39063">
        <ele>564.96899790969</ele>
        <time>2019-12-19T14:45:39Z</time>
      </trkpt>
      <trkpt lat="43.48086" lon="2.39055">
        <ele>564.52231990825</ele>
        <time>2019-12-19T14:45:44Z</time>
      </trkpt>
      <trkpt lat="43.48092" lon="2.39046">
        <ele>564.25078315288</ele>
        <time>2019-12-19T14:45:50Z</time>
      </trkpt>
      <trkpt lat="43.48094" lon="2.39035">
        <ele>563.04988380242</ele>
        <time>2019-12-19T14:45:57Z</time>
      </trkpt>
      <trkpt lat="43.48094" lon="2.39025">
        <ele>558.5182001777</ele>
        <time>2019-12-19T14:46:04Z</time>
      </trkpt>
      <trkpt lat="43.48095" lon="2.39013">
        <ele>555.74661810417</ele>
        <time>2019-12-19T14:46:11Z</time>
      </trkpt>
      <trkpt lat="43.48096" lon="2.39002">
        <ele>553.65360694285</ele>
        <time>2019-12-19T14:46:18Z</time>
      </trkpt>
      <trkpt lat="43.481" lon="2.38992">
        <ele>553.48023449909</ele>
        <time>2019-12-19T14:46:24Z</time>
      </trkpt>
      <trkpt lat="43.48106" lon="2.38984">
        <ele>553.62243909948</ele>
        <time>2019-12-19T14:46:31Z</time>
      </trkpt>
      <trkpt lat="43.48113" lon="2.38977">
        <ele>553.57658296078</ele>
        <time>2019-12-19T14:46:39Z</time>
      </trkpt>
      <trkpt lat="43.48117" lon="2.38968">
        <ele>554.58726475667</ele>
        <time>2019-12-19T14:46:46Z</time>
      </trkpt>
      <trkpt lat="43.48122" lon="2.38959">
        <ele>555.47513890732</ele>
        <time>2019-12-19T14:46:53Z</time>
      </trkpt>
      <trkpt lat="43.48127" lon="2.38949">
        <ele>554.3651536135</ele>
        <time>2019-12-19T14:47:00Z</time>
      </trkpt>
      <trkpt lat="43.4813" lon="2.38938">
        <ele>552.79004073795</ele>
        <time>2019-12-19T14:47:09Z</time>
      </trkpt>
      <trkpt lat="43.48135" lon="2.38929">
        <ele>552.00527746323</ele>
        <time>2019-12-19T14:47:18Z</time>
      </trkpt>
      <trkpt lat="43.48141" lon="2.3892">
        <ele>552.17930001952</ele>
        <time>2019-12-19T14:47:27Z</time>
      </trkpt>
      <trkpt lat="43.48144" lon="2.3891">
        <ele>551.42974481639</ele>
        <time>2019-12-19T14:47:33Z</time>
      </trkpt>
      <trkpt lat="43.48152" lon="2.38904">
        <ele>552.02482068352</ele>
        <time>2019-12-19T14:47:55Z</time>
      </trkpt>
      <trkpt lat="43.48157" lon="2.38895">
        <ele>552.04269854352</ele>
        <time>2019-12-19T14:53:59Z</time>
      </trkpt>
      <trkpt lat="43.48158" lon="2.38883">
        <ele>553.22924823686</ele>
        <time>2019-12-19T14:54:12Z</time>
      </trkpt>
      <trkpt lat="43.48161" lon="2.38872">
        <ele>554.15034737159</ele>
        <time>2019-12-19T14:54:20Z</time>
      </trkpt>
      <trkpt lat="43.48162" lon="2.38861">
        <ele>554.28372436669</ele>
        <time>2019-12-19T14:54:27Z</time>
      </trkpt>
      <trkpt lat="43.48163" lon="2.38849">
        <ele>556.36967218108</ele>
        <time>2019-12-19T14:54:39Z</time>
      </trkpt>
      <trkpt lat="43.48167" lon="2.38838">
        <ele>555.26673215348</ele>
        <time>2019-12-19T14:54:46Z</time>
      </trkpt>
      <trkpt lat="43.4817" lon="2.38827">
        <ele>556.8061196385</ele>
        <time>2019-12-19T14:54:54Z</time>
      </trkpt>
      <trkpt lat="43.48173" lon="2.38816">
        <ele>558.09999173414</ele>
        <time>2019-12-19T14:55:01Z</time>
      </trkpt>
      <trkpt lat="43.48175" lon="2.38805">
        <ele>556.17836344149</ele>
        <time>2019-12-19T14:55:09Z</time>
      </trkpt>
      <trkpt lat="43.48178" lon="2.38795">
        <ele>555.65313449595</ele>
        <time>2019-12-19T14:55:16Z</time>
      </trkpt>
      <trkpt lat="43.4818" lon="2.38785">
        <ele>555.50514658261</ele>
        <time>2019-12-19T14:55:22Z</time>
      </trkpt>
      <trkpt lat="43.48182" lon="2.38773">
        <ele>555.57662995905</ele>
        <time>2019-12-19T14:55:29Z</time>
      </trkpt>
      <trkpt lat="43.48183" lon="2.38762">
        <ele>555.62494998984</ele>
        <time>2019-12-19T14:55:36Z</time>
      </trkpt>
      <trkpt lat="43.48182" lon="2.3875">
        <ele>556.04945442732</ele>
        <time>2019-12-19T14:55:46Z</time>
      </trkpt>
      <trkpt lat="43.48181" lon="2.38738">
        <ele>556.95471835416</ele>
        <time>2019-12-19T14:55:54Z</time>
      </trkpt>
      <trkpt lat="43.48181" lon="2.38727">
        <ele>558.82064499054</ele>
        <time>2019-12-19T14:56:02Z</time>
      </trkpt>
      <trkpt lat="43.48185" lon="2.38716">
        <ele>559.98187965527</ele>
        <time>2019-12-19T14:56:07Z</time>
      </trkpt>
      <trkpt lat="43.48191" lon="2.38709">
        <ele>560.77181624714</ele>
        <time>2019-12-19T14:56:20Z</time>
      </trkpt>
      <trkpt lat="43.48198" lon="2.38701">
        <ele>559.1396940304</ele>
        <time>2019-12-19T14:56:26Z</time>
      </trkpt>
      <trkpt lat="43.48203" lon="2.38697">
        <ele>558.41672176681</ele>
        <time>2019-12-19T14:56:36Z</time>
      </trkpt>
      <trkpt lat="43.4821" lon="2.38691">
        <ele>557.69853479788</ele>
        <time>2019-12-19T14:56:40Z</time>
      </trkpt>
      <trkpt lat="43.4822" lon="2.38683">
        <ele>555.92587925121</ele>
        <time>2019-12-19T14:56:45Z</time>
      </trkpt>
      <trkpt lat="43.48228" lon="2.38675">
        <ele>552.72701079119</ele>
        <time>2019-12-19T14:56:52Z</time>
      </trkpt>
      <trkpt lat="43.48233" lon="2.38666">
        <ele>551.5554024009</ele>
        <time>2019-12-19T14:57:01Z</time>
      </trkpt>
      <trkpt lat="43.48232" lon="2.38654">
        <ele>555.2964388039</ele>
        <time>2019-12-19T14:57:13Z</time>
      </trkpt>
      <trkpt lat="43.48229" lon="2.38644">
        <ele>557.70404343959</ele>
        <time>2019-12-19T14:57:21Z</time>
      </trkpt>
      <trkpt lat="43.48229" lon="2.38633">
        <ele>557.95472256746</ele>
        <time>2019-12-19T14:57:35Z</time>
      </trkpt>
      <trkpt lat="43.48233" lon="2.38624">
        <ele>561.99573309999</ele>
        <time>2019-12-19T14:58:02Z</time>
      </trkpt>
      <trkpt lat="43.48236" lon="2.38613">
        <ele>564.03029911686</ele>
        <time>2019-12-19T14:58:09Z</time>
      </trkpt>
      <trkpt lat="43.48235" lon="2.38601">
        <ele>567.05539890379</ele>
        <time>2019-12-19T14:58:18Z</time>
      </trkpt>
      <trkpt lat="43.48234" lon="2.3859">
        <ele>568.3996141227</ele>
        <time>2019-12-19T14:59:05Z</time>
      </trkpt>
      <trkpt lat="43.48229" lon="2.38579">
        <ele>568.90959705599</ele>
        <time>2019-12-19T14:59:25Z</time>
      </trkpt>
      <trkpt lat="43.48222" lon="2.38573">
        <ele>571.14448098466</ele>
        <time>2019-12-19T14:59:37Z</time>
      </trkpt>
      <trkpt lat="43.48218" lon="2.38563">
        <ele>573.70836315118</ele>
        <time>2019-12-19T14:59:48Z</time>
      </trkpt>
      <trkpt lat="43.48216" lon="2.38552">
        <ele>573.28355406411</ele>
        <time>2019-12-19T15:00:02Z</time>
      </trkpt>
      <trkpt lat="43.48214" lon="2.3854">
        <ele>576.95804762468</ele>
        <time>2019-12-19T15:00:13Z</time>
      </trkpt>
      <trkpt lat="43.48218" lon="2.38531">
        <ele>577.39653629716</ele>
        <time>2019-12-19T15:00:21Z</time>
      </trkpt>
      <trkpt lat="43.48223" lon="2.38521">
        <ele>575.77509877551</ele>
        <time>2019-12-19T15:01:41Z</time>
      </trkpt>
      <trkpt lat="43.48228" lon="2.38512">
        <ele>573.68652324378</ele>
        <time>2019-12-19T15:01:50Z</time>
      </trkpt>
      <trkpt lat="43.48234" lon="2.38502">
        <ele>568.94181282818</ele>
        <time>2019-12-19T15:02:01Z</time>
      </trkpt>
      <trkpt lat="43.48241" lon="2.38495">
        <ele>564.31902600173</ele>
        <time>2019-12-19T15:02:20Z</time>
      </trkpt>
      <trkpt lat="43.48246" lon="2.38485">
        <ele>564.33983306587</ele>
        <time>2019-12-19T15:02:30Z</time>
      </trkpt>
      <trkpt lat="43.48253" lon="2.38477">
        <ele>563.68409558944</ele>
        <time>2019-12-19T15:02:42Z</time>
      </trkpt>
      <trkpt lat="43.4826" lon="2.38471">
        <ele>561.09282851405</ele>
        <time>2019-12-19T15:02:53Z</time>
      </trkpt>
      <trkpt lat="43.48262" lon="2.38459">
        <ele>558.34934233967</ele>
        <time>2019-12-19T15:03:01Z</time>
      </trkpt>
      <trkpt lat="43.48266" lon="2.38449">
        <ele>556.03024487942</ele>
        <time>2019-12-19T15:03:12Z</time>
      </trkpt>
      <trkpt lat="43.48271" lon="2.38438">
        <ele>553.36386539135</ele>
        <time>2019-12-19T15:03:22Z</time>
      </trkpt>
      <trkpt lat="43.48275" lon="2.38428">
        <ele>553.517194435</ele>
        <time>2019-12-19T15:03:33Z</time>
      </trkpt>
      <trkpt lat="43.48279" lon="2.38418">
        <ele>553.99175222963</ele>
        <time>2019-12-19T15:03:44Z</time>
      </trkpt>
      <trkpt lat="43.48285" lon="2.38409">
        <ele>552.20282649435</ele>
        <time>2019-12-19T15:03:55Z</time>
      </trkpt>
      <trkpt lat="43.48286" lon="2.38397">
        <ele>552.26151837129</ele>
        <time>2019-12-19T15:05:57Z</time>
      </trkpt>
      <trkpt lat="43.48293" lon="2.3839">
        <ele>552.23504549731</ele>
        <time>2019-12-19T15:06:07Z</time>
      </trkpt>
      <trkpt lat="43.483" lon="2.38383">
        <ele>550.73618247733</ele>
        <time>2019-12-19T15:06:31Z</time>
      </trkpt>
      <trkpt lat="43.48307" lon="2.38374">
        <ele>549.7972836541</ele>
        <time>2019-12-19T15:06:41Z</time>
      </trkpt>
      <trkpt lat="43.48311" lon="2.38364">
        <ele>545.5434068758</ele>
        <time>2019-12-19T15:06:51Z</time>
      </trkpt>
      <trkpt lat="43.48315" lon="2.38353">
        <ele>541.94884761889</ele>
        <time>2019-12-19T15:07:06Z</time>
      </trkpt>
      <trkpt lat="43.48317" lon="2.38342">
        <ele>545.5541873211</ele>
        <time>2019-12-19T15:08:34Z</time>
      </trkpt>
      <trkpt lat="43.48323" lon="2.38334">
        <ele>544.05433159042</ele>
        <time>2019-12-19T15:08:52Z</time>
      </trkpt>
      <trkpt lat="43.4833" lon="2.38328">
        <ele>541.96527500264</ele>
        <time>2019-12-19T15:09:04Z</time>
      </trkpt>
      <trkpt lat="43.48335" lon="2.38318">
        <ele>539.11261450779</ele>
        <time>2019-12-19T15:09:16Z</time>
      </trkpt>
      <trkpt lat="43.48339" lon="2.38309">
        <ele>536.87611117028</ele>
        <time>2019-12-19T15:09:27Z</time>
      </trkpt>
      <trkpt lat="43.4834" lon="2.38297">
        <ele>533.39459519647</ele>
        <time>2019-12-19T15:09:41Z</time>
      </trkpt>
      <trkpt lat="43.48344" lon="2.38287">
        <ele>531.95862326119</ele>
        <time>2019-12-19T15:09:49Z</time>
      </trkpt>
      <trkpt lat="43.48341" lon="2.38275">
        <ele>531.93246663548</ele>
        <time>2019-12-19T15:10:18Z</time>
      </trkpt>
      <trkpt lat="43.48338" lon="2.38264">
        <ele>531.62636856269</ele>
        <time>2019-12-19T15:10:31Z</time>
      </trkpt>
      <trkpt lat="43.48333" lon="2.38255">
        <ele>526.84858827107</ele>
        <time>2019-12-19T15:10:46Z</time>
      </trkpt>
      <trkpt lat="43.48332" lon="2.38243">
        <ele>524.95218695793</ele>
        <time>2019-12-19T15:11:00Z</time>
      </trkpt>
      <trkpt lat="43.48331" lon="2.38232">
        <ele>521.95801599603</ele>
        <time>2019-12-19T15:11:13Z</time>
      </trkpt>
      <trkpt lat="43.48333" lon="2.38221">
        <ele>519.57231326308</ele>
        <time>2019-12-19T15:11:18Z</time>
      </trkpt>
      <trkpt lat="43.48334" lon="2.38209">
        <ele>515.06201173738</ele>
        <time>2019-12-19T15:11:52Z</time>
      </trkpt>
      <trkpt lat="43.48342" lon="2.38204">
        <ele>510.79888393544</ele>
        <time>2019-12-19T15:12:08Z</time>
      </trkpt>
      <trkpt lat="43.4835" lon="2.382">
        <ele>508.31262631621</ele>
        <time>2019-12-19T15:12:12Z</time>
      </trkpt>
      <trkpt lat="43.48357" lon="2.38194">
        <ele>504.39662547782</ele>
        <time>2019-12-19T15:12:17Z</time>
      </trkpt>
      <trkpt lat="43.48361" lon="2.38183">
        <ele>500.72274345439</ele>
        <time>2019-12-19T15:12:36Z</time>
      </trkpt>
      <trkpt lat="43.48369" lon="2.38178">
        <ele>500.37138868496</ele>
        <time>2019-12-19T15:12:44Z</time>
      </trkpt>
      <trkpt lat="43.48376" lon="2.38172">
        <ele>498.11439842731</ele>
        <time>2019-12-19T15:12:53Z</time>
      </trkpt>
      <trkpt lat="43.48384" lon="2.38169">
        <ele>491.8718967326</ele>
        <time>2019-12-19T15:13:05Z</time>
      </trkpt>
      <trkpt lat="43.48388" lon="2.3816">
        <ele>489.83913377393</ele>
        <time>2019-12-19T15:13:11Z</time>
      </trkpt>
      <trkpt lat="43.48393" lon="2.38151">
        <ele>488.08528826572</ele>
        <time>2019-12-19T15:13:17Z</time>
      </trkpt>
      <trkpt lat="43.48399" lon="2.38143">
        <ele>486.59288216289</ele>
        <time>2019-12-19T15:13:29Z</time>
      </trkpt>
      <trkpt lat="43.48405" lon="2.38137">
        <ele>484.68679123931</ele>
        <time>2019-12-19T15:13:36Z</time>
      </trkpt>
      <trkpt lat="43.48414" lon="2.38139">
        <ele>486.45929402392</ele>
        <time>2019-12-19T15:13:53Z</time>
      </trkpt>
      <trkpt lat="43.48421" lon="2.38132">
        <ele>483.18939365353</ele>
        <time>2019-12-19T15:14:11Z</time>
      </trkpt>
      <trkpt lat="43.48428" lon="2.38125">
        <ele>480.90998358279</ele>
        <time>2019-12-19T15:14:22Z</time>
      </trkpt>
      <trkpt lat="43.48435" lon="2.38119">
        <ele>478.29831028171</ele>
        <time>2019-12-19T15:14:35Z</time>
      </trkpt>
      <trkpt lat="43.48441" lon="2.3811">
        <ele>474.95000841375</ele>
        <time>2019-12-19T15:14:55Z</time>
      </trkpt>
      <trkpt lat="43.48449" lon="2.38105">
        <ele>473.55783187132</ele>
        <time>2019-12-19T15:15:01Z</time>
      </trkpt>
      <trkpt lat="43.48455" lon="2.38097">
        <ele>470.49178739637</ele>
        <time>2019-12-19T15:15:11Z</time>
      </trkpt>
      <trkpt lat="43.48463" lon="2.38091">
        <ele>469.07751718815</ele>
        <time>2019-12-19T15:15:36Z</time>
      </trkpt>
      <trkpt lat="43.4847" lon="2.38084">
        <ele>464.02354094852</ele>
        <time>2019-12-19T15:15:52Z</time>
      </trkpt>
      <trkpt lat="43.48477" lon="2.38077">
        <ele>461.0595793603</ele>
        <time>2019-12-19T15:16:00Z</time>
      </trkpt>
      <trkpt lat="43.48471" lon="2.38067">
        <ele>454.90607351623</ele>
        <time>2019-12-19T15:16:32Z</time>
      </trkpt>
      <trkpt lat="43.48473" lon="2.38056">
        <ele>455.05059770308</ele>
        <time>2019-12-19T15:16:52Z</time>
      </trkpt>
      <trkpt lat="43.48469" lon="2.38045">
        <ele>452.08498493489</ele>
        <time>2019-12-19T15:17:02Z</time>
      </trkpt>
      <trkpt lat="43.48464" lon="2.38036">
        <ele>453.54386521969</ele>
        <time>2019-12-19T15:17:17Z</time>
      </trkpt>
      <trkpt lat="43.48458" lon="2.38027">
        <ele>456.61777845956</ele>
        <time>2019-12-19T15:17:26Z</time>
      </trkpt>
      <trkpt lat="43.4845" lon="2.38022">
        <ele>458.38392922189</ele>
        <time>2019-12-19T15:17:34Z</time>
      </trkpt>
      <trkpt lat="43.48442" lon="2.38019">
        <ele>458.63351412676</ele>
        <time>2019-12-19T15:17:43Z</time>
      </trkpt>
      <trkpt lat="43.48434" lon="2.38022">
        <ele>458.34275984298</ele>
        <time>2019-12-19T15:17:51Z</time>
      </trkpt>
      <trkpt lat="43.48425" lon="2.38024">
        <ele>456.01008711383</ele>
        <time>2019-12-19T15:18:00Z</time>
      </trkpt>
      <trkpt lat="43.48417" lon="2.38029">
        <ele>454.73383027315</ele>
        <time>2019-12-19T15:18:09Z</time>
      </trkpt>
      <trkpt lat="43.48409" lon="2.38034">
        <ele>451.3737275023</ele>
        <time>2019-12-19T15:18:24Z</time>
      </trkpt>
      <trkpt lat="43.48401" lon="2.38034">
        <ele>447.87013469636</ele>
        <time>2019-12-19T15:18:33Z</time>
      </trkpt>
      <trkpt lat="43.48392" lon="2.3803">
        <ele>447.12033789884</ele>
        <time>2019-12-19T15:18:48Z</time>
      </trkpt>
      <trkpt lat="43.48384" lon="2.3803">
        <ele>445.72360667028</ele>
        <time>2019-12-19T15:19:18Z</time>
      </trkpt>
      <trkpt lat="43.48377" lon="2.38036">
        <ele>444.34554887284</ele>
        <time>2019-12-19T15:19:29Z</time>
      </trkpt>
      <trkpt lat="43.48369" lon="2.3804">
        <ele>443.00262098387</ele>
        <time>2019-12-19T15:19:34Z</time>
      </trkpt>
      <trkpt lat="43.48361" lon="2.38044">
        <ele>439.68802651111</ele>
        <time>2019-12-19T15:19:53Z</time>
      </trkpt>
      <trkpt lat="43.48352" lon="2.38048">
        <ele>438.05880589969</ele>
        <time>2019-12-19T15:20:01Z</time>
      </trkpt>
      <trkpt lat="43.48344" lon="2.38048">
        <ele>438.80391292647</ele>
        <time>2019-12-19T15:20:09Z</time>
      </trkpt>
      <trkpt lat="43.48335" lon="2.3805">
        <ele>436.1518881144</ele>
        <time>2019-12-19T15:20:27Z</time>
      </trkpt>
      <trkpt lat="43.48327" lon="2.38052">
        <ele>439.15504743997</ele>
        <time>2019-12-19T15:20:33Z</time>
      </trkpt>
      <trkpt lat="43.48319" lon="2.38054">
        <ele>439.75983801298</ele>
        <time>2019-12-19T15:20:40Z</time>
      </trkpt>
      <trkpt lat="43.48312" lon="2.38049">
        <ele>437.68582268152</ele>
        <time>2019-12-19T15:20:56Z</time>
      </trkpt>
      <trkpt lat="43.48307" lon="2.38041">
        <ele>431.87883691862</ele>
        <time>2019-12-19T15:21:07Z</time>
      </trkpt>
      <trkpt lat="43.483" lon="2.38034">
        <ele>431.01199883409</ele>
        <time>2019-12-19T15:21:16Z</time>
      </trkpt>
      <trkpt lat="43.48292" lon="2.38033">
        <ele>431.72025641799</ele>
        <time>2019-12-19T15:21:23Z</time>
      </trkpt>
      <trkpt lat="43.48283" lon="2.38036">
        <ele>431.71481793001</ele>
        <time>2019-12-19T15:21:32Z</time>
      </trkpt>
      <trkpt lat="43.48277" lon="2.38042">
        <ele>429.73880358972</ele>
        <time>2019-12-19T15:21:42Z</time>
      </trkpt>
      <trkpt lat="43.48269" lon="2.38045">
        <ele>427.49919792637</ele>
        <time>2019-12-19T15:21:57Z</time>
      </trkpt>
      <trkpt lat="43.48262" lon="2.38049">
        <ele>426.92446815502</ele>
        <time>2019-12-19T15:22:06Z</time>
      </trkpt>
      <trkpt lat="43.48253" lon="2.38053">
        <ele>425.98576422688</ele>
        <time>2019-12-19T15:22:19Z</time>
      </trkpt>
      <trkpt lat="43.48245" lon="2.38056">
        <ele>422.6189170843</ele>
        <time>2019-12-19T15:22:43Z</time>
      </trkpt>
      <trkpt lat="43.48238" lon="2.38062">
        <ele>421.4308266947</ele>
        <time>2019-12-19T15:22:48Z</time>
      </trkpt>
      <trkpt lat="43.48231" lon="2.38069">
        <ele>420.50974334683</ele>
        <time>2019-12-19T15:22:54Z</time>
      </trkpt>
      <trkpt lat="43.48225" lon="2.38076">
        <ele>418.51235540397</ele>
        <time>2019-12-19T15:22:59Z</time>
      </trkpt>
      <trkpt lat="43.4822" lon="2.38082">
        <ele>417.54383050837</ele>
        <time>2019-12-19T15:23:05Z</time>
      </trkpt>
      <trkpt lat="43.48214" lon="2.3809">
        <ele>416.20757321361</ele>
        <time>2019-12-19T15:23:12Z</time>
      </trkpt>
      <trkpt lat="43.48206" lon="2.38095">
        <ele>411.36768172216</ele>
        <time>2019-12-19T15:23:20Z</time>
      </trkpt>
      <trkpt lat="43.48199" lon="2.381">
        <ele>407.30418830924</ele>
        <time>2019-12-19T15:23:29Z</time>
      </trkpt>
      <trkpt lat="43.48194" lon="2.38091">
        <ele>405.7258785544</ele>
        <time>2019-12-19T15:23:49Z</time>
      </trkpt>
      <trkpt lat="43.48187" lon="2.38084">
        <ele>407.44847960491</ele>
        <time>2019-12-19T15:24:00Z</time>
      </trkpt>
      <trkpt lat="43.48179" lon="2.38081">
        <ele>408.15263033938</ele>
        <time>2019-12-19T15:24:21Z</time>
      </trkpt>
      <trkpt lat="43.48172" lon="2.38074">
        <ele>409.13354065269</ele>
        <time>2019-12-19T15:24:28Z</time>
      </trkpt>
      <trkpt lat="43.48173" lon="2.38065">
        <ele>406.86029911414</ele>
        <time>2019-12-19T15:24:40Z</time>
      </trkpt>
      <trkpt lat="43.48178" lon="2.38053">
        <ele>406.30592560023</ele>
        <time>2019-12-19T15:24:45Z</time>
      </trkpt>
      <trkpt lat="43.48171" lon="2.38045">
        <ele>404.83957829885</ele>
        <time>2019-12-19T15:24:51Z</time>
      </trkpt>
      <trkpt lat="43.48168" lon="2.38034">
        <ele>403.94377916865</ele>
        <time>2019-12-19T15:25:00Z</time>
      </trkpt>
      <trkpt lat="43.48162" lon="2.38031">
        <ele>404.16190992482</ele>
        <time>2019-12-19T15:25:04Z</time>
      </trkpt>
      <trkpt lat="43.48151" lon="2.38026">
        <ele>404.31959401723</ele>
        <time>2019-12-19T15:25:09Z</time>
      </trkpt>
      <trkpt lat="43.48146" lon="2.38016">
        <ele>405.6213737987</ele>
        <time>2019-12-19T15:25:16Z</time>
      </trkpt>
      <trkpt lat="43.4814" lon="2.38008">
        <ele>409.00275621377</ele>
        <time>2019-12-19T15:25:25Z</time>
      </trkpt>
      <trkpt lat="43.48134" lon="2.38">
        <ele>409.74009445217</ele>
        <time>2019-12-19T15:25:37Z</time>
      </trkpt>
      <trkpt lat="43.4813" lon="2.37991">
        <ele>411.95615571924</ele>
        <time>2019-12-19T15:25:41Z</time>
      </trkpt>
      <trkpt lat="43.48123" lon="2.37982">
        <ele>415.02281088289</ele>
        <time>2019-12-19T15:25:46Z</time>
      </trkpt>
      <trkpt lat="43.48115" lon="2.37976">
        <ele>415.45139405876</ele>
        <time>2019-12-19T15:25:52Z</time>
      </trkpt>
      <trkpt lat="43.48107" lon="2.37974">
        <ele>413.60526997037</ele>
        <time>2019-12-19T15:25:59Z</time>
      </trkpt>
      <trkpt lat="43.481" lon="2.3798">
        <ele>408.95464199502</ele>
        <time>2019-12-19T15:26:08Z</time>
      </trkpt>
      <trkpt lat="43.48092" lon="2.37979">
        <ele>408.86461753957</ele>
        <time>2019-12-19T15:26:20Z</time>
      </trkpt>
      <trkpt lat="43.48086" lon="2.37971">
        <ele>408.30626494065</ele>
        <time>2019-12-19T15:26:24Z</time>
      </trkpt>
      <trkpt lat="43.48081" lon="2.37962">
        <ele>404.66108719632</ele>
        <time>2019-12-19T15:26:29Z</time>
      </trkpt>
      <trkpt lat="43.48072" lon="2.37962">
        <ele>403.27322844695</ele>
        <time>2019-12-19T15:26:35Z</time>
      </trkpt>
      <trkpt lat="43.48064" lon="2.37967">
        <ele>402.47945617232</ele>
        <time>2019-12-19T15:26:41Z</time>
      </trkpt>
      <trkpt lat="43.48058" lon="2.37972">
        <ele>402.409195574</ele>
        <time>2019-12-19T15:26:53Z</time>
      </trkpt>
      <trkpt lat="43.4805" lon="2.37977">
        <ele>402.03274668753</ele>
        <time>2019-12-19T15:26:58Z</time>
      </trkpt>
      <trkpt lat="43.48043" lon="2.3798">
        <ele>403.20100206602</ele>
        <time>2019-12-19T15:27:04Z</time>
      </trkpt>
      <trkpt lat="43.48034" lon="2.37981">
        <ele>404.50054260436</ele>
        <time>2019-12-19T15:27:09Z</time>
      </trkpt>
      <trkpt lat="43.48032" lon="2.37971">
        <ele>407.60936550889</ele>
        <time>2019-12-19T15:27:22Z</time>
      </trkpt>
      <trkpt lat="43.48026" lon="2.37964">
        <ele>406.6681648735</ele>
        <time>2019-12-19T15:27:28Z</time>
      </trkpt>
      <trkpt lat="43.48019" lon="2.37961">
        <ele>406.32597568352</ele>
        <time>2019-12-19T15:27:32Z</time>
      </trkpt>
      <trkpt lat="43.4801" lon="2.37957">
        <ele>405.19363141619</ele>
        <time>2019-12-19T15:27:36Z</time>
      </trkpt>
      <trkpt lat="43.48008" lon="2.37944">
        <ele>404.30342744943</ele>
        <time>2019-12-19T15:27:41Z</time>
      </trkpt>
      <trkpt lat="43.48005" lon="2.37935">
        <ele>403.74022783339</ele>
        <time>2019-12-19T15:27:45Z</time>
      </trkpt>
      <trkpt lat="43.47999" lon="2.37926">
        <ele>404.62282421533</ele>
        <time>2019-12-19T15:27:50Z</time>
      </trkpt>
      <trkpt lat="43.47991" lon="2.37923">
        <ele>403.96981266793</ele>
        <time>2019-12-19T15:27:56Z</time>
      </trkpt>
      <trkpt lat="43.47983" lon="2.37928">
        <ele>398.31344458647</ele>
        <time>2019-12-19T15:28:15Z</time>
      </trkpt>
      <trkpt lat="43.47979" lon="2.37919">
        <ele>397.65677345637</ele>
        <time>2019-12-19T15:28:26Z</time>
      </trkpt>
      <trkpt lat="43.47981" lon="2.37908">
        <ele>397.70044658799</ele>
        <time>2019-12-19T15:28:30Z</time>
      </trkpt>
      <trkpt lat="43.47973" lon="2.37903">
        <ele>393.73916947376</ele>
        <time>2019-12-19T15:28:40Z</time>
      </trkpt>
      <trkpt lat="43.47967" lon="2.37893">
        <ele>394.35949041322</ele>
        <time>2019-12-19T15:28:50Z</time>
      </trkpt>
      <trkpt lat="43.47962" lon="2.37885">
        <ele>393.51017843839</ele>
        <time>2019-12-19T15:28:55Z</time>
      </trkpt>
      <trkpt lat="43.47955" lon="2.37882">
        <ele>392.28761756979</ele>
        <time>2019-12-19T15:28:59Z</time>
      </trkpt>
      <trkpt lat="43.47946" lon="2.37878">
        <ele>391.82666486502</ele>
        <time>2019-12-19T15:29:03Z</time>
      </trkpt>
      <trkpt lat="43.4794" lon="2.3787">
        <ele>388.96142241545</ele>
        <time>2019-12-19T15:29:24Z</time>
      </trkpt>
      <trkpt lat="43.47933" lon="2.37863">
        <ele>385.45482966211</ele>
        <time>2019-12-19T15:29:33Z</time>
      </trkpt>
      <trkpt lat="43.47929" lon="2.37853">
        <ele>384.33165051416</ele>
        <time>2019-12-19T15:29:40Z</time>
      </trkpt>
      <trkpt lat="43.47929" lon="2.37842">
        <ele>382.48132392857</ele>
        <time>2019-12-19T15:29:53Z</time>
      </trkpt>
      <trkpt lat="43.47935" lon="2.3783">
        <ele>379.92953684647</ele>
        <time>2019-12-19T15:29:57Z</time>
      </trkpt>
      <trkpt lat="43.47932" lon="2.37819">
        <ele>377.12066941801</ele>
        <time>2019-12-19T15:30:19Z</time>
      </trkpt>
      <trkpt lat="43.47924" lon="2.37816">
        <ele>374.11212056596</ele>
        <time>2019-12-19T15:30:33Z</time>
      </trkpt>
      <trkpt lat="43.47923" lon="2.37804">
        <ele>373.64890288841</ele>
        <time>2019-12-19T15:30:44Z</time>
      </trkpt>
      <trkpt lat="43.47917" lon="2.37797">
        <ele>374.29210060649</ele>
        <time>2019-12-19T15:30:50Z</time>
      </trkpt>
      <trkpt lat="43.47906" lon="2.3779">
        <ele>373.74148842879</ele>
        <time>2019-12-19T15:30:55Z</time>
      </trkpt>
      <trkpt lat="43.47898" lon="2.3779">
        <ele>373.33626336139</ele>
        <time>2019-12-19T15:31:29Z</time>
      </trkpt>
      <trkpt lat="43.47905" lon="2.37797">
        <ele>373.55180902779</ele>
        <time>2019-12-19T15:31:40Z</time>
      </trkpt>
      <trkpt lat="43.47899" lon="2.37788">
        <ele>375.83120579459</ele>
        <time>2019-12-19T15:31:58Z</time>
      </trkpt>
      <trkpt lat="43.47894" lon="2.37782">
        <ele>375.73181526083</ele>
        <time>2019-12-19T15:32:13Z</time>
      </trkpt>
      <trkpt lat="43.47886" lon="2.37787">
        <ele>374.41162637621</ele>
        <time>2019-12-19T15:32:41Z</time>
      </trkpt>
      <trkpt lat="43.47891" lon="2.37797">
        <ele>374.28912007995</ele>
        <time>2019-12-19T15:32:47Z</time>
      </trkpt>
      <trkpt lat="43.4789" lon="2.37809">
        <ele>376.28730981797</ele>
        <time>2019-12-19T15:33:10Z</time>
      </trkpt>
      <trkpt lat="43.47881" lon="2.37808">
        <ele>373.37711211853</ele>
        <time>2019-12-19T15:33:30Z</time>
      </trkpt>
      <trkpt lat="43.47878" lon="2.37819">
        <ele>372.29394877609</ele>
        <time>2019-12-19T15:34:01Z</time>
      </trkpt>
      <trkpt lat="43.4788" lon="2.37831">
        <ele>371.43315789849</ele>
        <time>2019-12-19T15:34:12Z</time>
      </trkpt>
      <trkpt lat="43.47881" lon="2.37843">
        <ele>366.48433407955</ele>
        <time>2019-12-19T15:34:24Z</time>
      </trkpt>
      <trkpt lat="43.47878" lon="2.37853">
        <ele>364.83703781199</ele>
        <time>2019-12-19T15:34:36Z</time>
      </trkpt>
      <trkpt lat="43.47873" lon="2.37862">
        <ele>363.41139473021</ele>
        <time>2019-12-19T15:34:53Z</time>
      </trkpt>
      <trkpt lat="43.47869" lon="2.37872">
        <ele>362.74803384487</ele>
        <time>2019-12-19T15:35:03Z</time>
      </trkpt>
      <trkpt lat="43.47865" lon="2.37883">
        <ele>360.28637543693</ele>
        <time>2019-12-19T15:35:30Z</time>
      </trkpt>
      <trkpt lat="43.47862" lon="2.37894">
        <ele>357.80494558066</ele>
        <time>2019-12-19T15:35:39Z</time>
      </trkpt>
      <trkpt lat="43.47861" lon="2.37906">
        <ele>356.01673525758</ele>
        <time>2019-12-19T15:35:50Z</time>
      </trkpt>
      <trkpt lat="43.47856" lon="2.37916">
        <ele>353.37008703966</ele>
        <time>2019-12-19T15:36:18Z</time>
      </trkpt>
      <trkpt lat="43.47851" lon="2.37925">
        <ele>351.92876647506</ele>
        <time>2019-12-19T15:36:28Z</time>
      </trkpt>
      <trkpt lat="43.47847" lon="2.37936">
        <ele>350.99081792682</ele>
        <time>2019-12-19T15:36:36Z</time>
      </trkpt>
      <trkpt lat="43.4784" lon="2.37943">
        <ele>350.41093967203</ele>
        <time>2019-12-19T15:36:45Z</time>
      </trkpt>
      <trkpt lat="43.4784" lon="2.37955">
        <ele>348.29813593905</ele>
        <time>2019-12-19T15:36:58Z</time>
      </trkpt>
      <trkpt lat="43.47839" lon="2.37967">
        <ele>346.44667238742</ele>
        <time>2019-12-19T15:37:13Z</time>
      </trkpt>
      <trkpt lat="43.47836" lon="2.37977">
        <ele>344.00523746666</ele>
        <time>2019-12-19T15:37:37Z</time>
      </trkpt>
      <trkpt lat="43.47833" lon="2.37988">
        <ele>344.72895247862</ele>
        <time>2019-12-19T15:37:46Z</time>
      </trkpt>
      <trkpt lat="43.4783" lon="2.37998">
        <ele>345.59761380963</ele>
        <time>2019-12-19T15:37:54Z</time>
      </trkpt>
      <trkpt lat="43.47826" lon="2.38008">
        <ele>346.0469681276</ele>
        <time>2019-12-19T15:38:01Z</time>
      </trkpt>
      <trkpt lat="43.47824" lon="2.38019">
        <ele>344.30089895707</ele>
        <time>2019-12-19T15:38:09Z</time>
      </trkpt>
      <trkpt lat="43.47819" lon="2.38029">
        <ele>344.12036903668</ele>
        <time>2019-12-19T15:38:15Z</time>
      </trkpt>
      <trkpt lat="43.47822" lon="2.3804">
        <ele>343.07717906497</ele>
        <time>2019-12-19T15:38:30Z</time>
      </trkpt>
      <trkpt lat="43.47843" lon="2.38058">
        <ele>341.37690380216</ele>
        <time>2019-12-19T15:38:35Z</time>
      </trkpt>
      <trkpt lat="43.47835" lon="2.38057">
        <ele>338.9709175881</ele>
        <time>2019-12-19T15:38:43Z</time>
      </trkpt>
      <trkpt lat="43.47824" lon="2.38053">
        <ele>338.4250337081</ele>
        <time>2019-12-19T15:38:48Z</time>
      </trkpt>
      <trkpt lat="43.4782" lon="2.38055">
        <ele>337.12750087213</ele>
        <time>2019-12-19T15:38:56Z</time>
      </trkpt>
      <trkpt lat="43.47786" lon="2.38046">
        <ele>338.62773040961</ele>
        <time>2019-12-19T15:39:01Z</time>
      </trkpt>
      <trkpt lat="43.47785" lon="2.38057">
        <ele>339.87660421338</ele>
        <time>2019-12-19T15:39:22Z</time>
      </trkpt>
      <trkpt lat="43.47792" lon="2.38064">
        <ele>339.28575502522</ele>
        <time>2019-12-19T15:39:38Z</time>
      </trkpt>
      <trkpt lat="43.47798" lon="2.38071">
        <ele>340.9563938817</ele>
        <time>2019-12-19T15:39:43Z</time>
      </trkpt>
      <trkpt lat="43.47791" lon="2.38077">
        <ele>340.68819764163</ele>
        <time>2019-12-19T15:39:50Z</time>
      </trkpt>
      <trkpt lat="43.4779" lon="2.38088">
        <ele>340.57631718274</ele>
        <time>2019-12-19T15:40:03Z</time>
      </trkpt>
      <trkpt lat="43.47785" lon="2.38098">
        <ele>338.94511754904</ele>
        <time>2019-12-19T15:40:11Z</time>
      </trkpt>
      <trkpt lat="43.47778" lon="2.38104">
        <ele>336.58803804126</ele>
        <time>2019-12-19T15:40:19Z</time>
      </trkpt>
      <trkpt lat="43.47772" lon="2.38107">
        <ele>337.41729030292</ele>
        <time>2019-12-19T15:40:23Z</time>
      </trkpt>
      <trkpt lat="43.47761" lon="2.38108">
        <ele>340.57144255377</ele>
        <time>2019-12-19T15:40:28Z</time>
      </trkpt>
      <trkpt lat="43.4775" lon="2.38112">
        <ele>341.19187844265</ele>
        <time>2019-12-19T15:40:33Z</time>
      </trkpt>
      <trkpt lat="43.47747" lon="2.38115">
        <ele>342.10494195949</ele>
        <time>2019-12-19T15:41:03Z</time>
      </trkpt>
      <trkpt lat="43.47747" lon="2.38115">
        <ele>342.10494195949</ele>
        <time>2019-12-19T15:41:04Z</time>
      </trkpt>
    </trkseg>
  </trk>
</gpx>